<?xml version="1.0" encoding="UTF-8" standalone="no" ?>
<gpx xmlns="http://www.topografix.com/GPX/1/1" xmlns:xsi="http://www.w3.org/2001/XMLSchema-instance" xsi:schemaLocation="http://www.topografix.com/GPX/1/1 http://www.topografix.com/GPX/1/1/gpx.xsd" version="1.1" creator="VisuGPX - https://www.visugpx.com">
  <metadata>
    <name>trace Felix dim 18 01 2026</name>
  </metadata>
  <trk>
    <name><![CDATA[ttrace Felix dim 18 01 2026_1]]></name>
    <extensions>
      <line xmlns="http://www.topografix.com/GPX/gpx_style/0/2">
        <color>0000FF</color>
        <width>4</width>
      </line>
    </extensions>
    <trkseg>
      <trkpt lat="47.60938" lon="-0.71917">
        <ele>61.8</ele>
        <time>2026-01-18T08:30:00.000Z</time>
      </trkpt>
      <trkpt lat="47.60938" lon="-0.71917">
        <ele>61.8</ele>
        <time>2026-01-18T08:30:00.000Z</time>
        <extensions>
          <visugpx:TrkExtension xmlns:visugpx="https://www.visugpx.com/editgpx/">
            <visugpx:node>1</visugpx:node>
            </visugpx:TrkExtension>
        </extensions>
      </trkpt>
      <trkpt lat="47.60939" lon="-0.71935">
        <ele>61.8</ele>
        <time>2026-01-18T08:30:04.627Z</time>
      </trkpt>
      <trkpt lat="47.60942" lon="-0.71967">
        <ele>61.2</ele>
        <time>2026-01-18T08:30:12.578Z</time>
      </trkpt>
      <trkpt lat="47.60943" lon="-0.71979">
        <ele>61</ele>
        <time>2026-01-18T08:30:15.566Z</time>
        <extensions>
          <visugpx:TrkExtension xmlns:visugpx="https://www.visugpx.com/editgpx/">
            <visugpx:node>2</visugpx:node>
            </visugpx:TrkExtension>
        </extensions>
      </trkpt>
      <trkpt lat="47.60943" lon="-0.71982">
        <ele>61</ele>
        <time>2026-01-18T08:30:16.335Z</time>
      </trkpt>
      <trkpt lat="47.60946" lon="-0.72025">
        <ele>61</ele>
        <time>2026-01-18T08:30:27.409Z</time>
      </trkpt>
      <trkpt lat="47.60952" lon="-0.72103">
        <ele>60.1</ele>
        <time>2026-01-18T08:30:47.012Z</time>
        <extensions>
          <visugpx:TrkExtension xmlns:visugpx="https://www.visugpx.com/editgpx/">
            <visugpx:node>3</visugpx:node>
            </visugpx:TrkExtension>
        </extensions>
      </trkpt>
      <trkpt lat="47.60958" lon="-0.72185">
        <ele>59.7</ele>
        <time>2026-01-18T08:31:07.907Z</time>
      </trkpt>
      <trkpt lat="47.60958" lon="-0.72194">
        <ele>59.5</ele>
        <time>2026-01-18T08:31:10.107Z</time>
      </trkpt>
      <trkpt lat="47.60963" lon="-0.72223">
        <ele>59</ele>
        <time>2026-01-18T08:31:17.501Z</time>
      </trkpt>
      <trkpt lat="47.60965" lon="-0.7223">
        <ele>59</ele>
        <time>2026-01-18T08:31:19.448Z</time>
      </trkpt>
      <trkpt lat="47.60969" lon="-0.72246">
        <ele>59</ele>
        <time>2026-01-18T08:31:23.820Z</time>
        <extensions>
          <visugpx:TrkExtension xmlns:visugpx="https://www.visugpx.com/editgpx/">
            <visugpx:node>4</visugpx:node>
            </visugpx:TrkExtension>
        </extensions>
      </trkpt>
      <trkpt lat="47.60979" lon="-0.72279">
        <ele>59</ele>
        <time>2026-01-18T08:31:33.089Z</time>
      </trkpt>
      <trkpt lat="47.60986" lon="-0.72305">
        <ele>59</ele>
        <time>2026-01-18T08:31:40.261Z</time>
      </trkpt>
      <trkpt lat="47.60998" lon="-0.7235">
        <ele>59</ele>
        <time>2026-01-18T08:31:52.659Z</time>
      </trkpt>
      <trkpt lat="47.61004" lon="-0.7238">
        <ele>59</ele>
        <time>2026-01-18T08:32:00.675Z</time>
      </trkpt>
      <trkpt lat="47.61031" lon="-0.72535">
        <ele>58.1</ele>
        <time>2026-01-18T08:32:41.160Z</time>
      </trkpt>
      <trkpt lat="47.61019" lon="-0.72548">
        <ele>58</ele>
        <time>2026-01-18T08:32:46.748Z</time>
        <extensions>
          <visugpx:TrkExtension xmlns:visugpx="https://www.visugpx.com/editgpx/">
            <visugpx:node>5</visugpx:node>
            </visugpx:TrkExtension>
        </extensions>
      </trkpt>
      <trkpt lat="47.61031" lon="-0.72535">
        <ele>58.1</ele>
        <time>2026-01-18T08:32:52.457Z</time>
      </trkpt>
      <trkpt lat="47.61048" lon="-0.72646">
        <ele>57.9</ele>
        <time>2026-01-18T08:33:21.497Z</time>
      </trkpt>
      <trkpt lat="47.61056" lon="-0.7271">
        <ele>58</ele>
        <time>2026-01-18T08:33:38.233Z</time>
      </trkpt>
      <trkpt lat="47.61063" lon="-0.72744">
        <ele>58</ele>
        <time>2026-01-18T08:33:47.341Z</time>
      </trkpt>
      <trkpt lat="47.61071" lon="-0.72765">
        <ele>58</ele>
        <time>2026-01-18T08:33:53.520Z</time>
      </trkpt>
      <trkpt lat="47.61088" lon="-0.72787">
        <ele>58.1</ele>
        <time>2026-01-18T08:34:02.154Z</time>
      </trkpt>
      <trkpt lat="47.61099" lon="-0.72799">
        <ele>58.1</ele>
        <time>2026-01-18T08:34:07.343Z</time>
      </trkpt>
      <trkpt lat="47.61123" lon="-0.72825">
        <ele>58.4</ele>
        <time>2026-01-18T08:34:18.825Z</time>
      </trkpt>
      <trkpt lat="47.6115" lon="-0.72879">
        <ele>58.4</ele>
        <time>2026-01-18T08:34:36.048Z</time>
      </trkpt>
      <trkpt lat="47.61175" lon="-0.72947">
        <ele>58.3</ele>
        <time>2026-01-18T08:34:55.830Z</time>
      </trkpt>
      <trkpt lat="47.61182" lon="-0.72971">
        <ele>58.6</ele>
        <time>2026-01-18T08:35:02.723Z</time>
      </trkpt>
      <trkpt lat="47.61183" lon="-0.72977">
        <ele>58.6</ele>
        <time>2026-01-18T08:35:04.307Z</time>
      </trkpt>
      <trkpt lat="47.61185" lon="-0.7299">
        <ele>58.7</ele>
        <time>2026-01-18T08:35:07.786Z</time>
      </trkpt>
      <trkpt lat="47.61187" lon="-0.73055">
        <ele>58.7</ele>
        <time>2026-01-18T08:35:24.454Z</time>
      </trkpt>
      <trkpt lat="47.61187" lon="-0.73063">
        <ele>58.7</ele>
        <time>2026-01-18T08:35:26.504Z</time>
      </trkpt>
      <trkpt lat="47.61188" lon="-0.73078">
        <ele>58.8</ele>
        <time>2026-01-18T08:35:30.428Z</time>
      </trkpt>
      <trkpt lat="47.61218" lon="-0.73182">
        <ele>57.4</ele>
        <time>2026-01-18T08:35:58.618Z</time>
      </trkpt>
      <trkpt lat="47.61237" lon="-0.73249">
        <ele>56.5</ele>
        <time>2026-01-18T08:36:16.732Z</time>
      </trkpt>
      <trkpt lat="47.61222" lon="-0.7326">
        <ele>56.6</ele>
        <time>2026-01-18T08:36:23.152Z</time>
      </trkpt>
      <trkpt lat="47.61204" lon="-0.73275">
        <ele>56</ele>
        <time>2026-01-18T08:36:30.674Z</time>
      </trkpt>
      <trkpt lat="47.61185" lon="-0.73299">
        <ele>55.7</ele>
        <time>2026-01-18T08:36:39.984Z</time>
      </trkpt>
      <trkpt lat="47.61132" lon="-0.73388">
        <ele>54</ele>
        <time>2026-01-18T08:37:09.458Z</time>
      </trkpt>
      <trkpt lat="47.61107" lon="-0.73422">
        <ele>53.1</ele>
        <time>2026-01-18T08:37:21.856Z</time>
      </trkpt>
      <trkpt lat="47.61094" lon="-0.73441">
        <ele>52.8</ele>
        <time>2026-01-18T08:37:28.621Z</time>
      </trkpt>
      <trkpt lat="47.61083" lon="-0.73459">
        <ele>52</ele>
        <time>2026-01-18T08:37:34.447Z</time>
      </trkpt>
      <trkpt lat="47.6108" lon="-0.73465">
        <ele>51.8</ele>
        <time>2026-01-18T08:37:36.258Z</time>
        <extensions>
          <visugpx:TrkExtension xmlns:visugpx="https://www.visugpx.com/editgpx/">
            <visugpx:node>6</visugpx:node>
            </visugpx:TrkExtension>
        </extensions>
      </trkpt>
      <trkpt lat="47.6107" lon="-0.73485">
        <ele>50.6</ele>
        <time>2026-01-18T08:37:42.097Z</time>
      </trkpt>
      <trkpt lat="47.61056" lon="-0.73526">
        <ele>48.1</ele>
        <time>2026-01-18T08:37:52.793Z</time>
      </trkpt>
      <trkpt lat="47.61051" lon="-0.7354">
        <ele>47.3</ele>
        <time>2026-01-18T08:37:56.497Z</time>
      </trkpt>
      <trkpt lat="47.61044" lon="-0.73552">
        <ele>46.7</ele>
        <time>2026-01-18T08:38:00.273Z</time>
      </trkpt>
      <trkpt lat="47.61026" lon="-0.73565">
        <ele>45.2</ele>
        <time>2026-01-18T08:38:07.217Z</time>
      </trkpt>
      <trkpt lat="47.61009" lon="-0.73573">
        <ele>44.2</ele>
        <time>2026-01-18T08:38:13.512Z</time>
      </trkpt>
      <trkpt lat="47.60988" lon="-0.73586">
        <ele>43.9</ele>
        <time>2026-01-18T08:38:21.987Z</time>
      </trkpt>
      <trkpt lat="47.60985" lon="-0.73588">
        <ele>43.8</ele>
        <time>2026-01-18T08:38:23.183Z</time>
      </trkpt>
      <trkpt lat="47.60956" lon="-0.73611">
        <ele>43</ele>
        <time>2026-01-18T08:38:35.239Z</time>
      </trkpt>
      <trkpt lat="47.60942" lon="-0.73624">
        <ele>43</ele>
        <time>2026-01-18T08:38:41.516Z</time>
      </trkpt>
      <trkpt lat="47.60924" lon="-0.73641">
        <ele>43.7</ele>
        <time>2026-01-18T08:38:50.106Z</time>
      </trkpt>
      <trkpt lat="47.6087" lon="-0.73699">
        <ele>45.1</ele>
        <time>2026-01-18T08:39:16.360Z</time>
      </trkpt>
      <trkpt lat="47.60797" lon="-0.7377">
        <ele>48.3</ele>
        <time>2026-01-18T08:39:51.763Z</time>
      </trkpt>
      <trkpt lat="47.60794" lon="-0.73772">
        <ele>48.4</ele>
        <time>2026-01-18T08:39:53.081Z</time>
      </trkpt>
      <trkpt lat="47.6077" lon="-0.73791">
        <ele>49.8</ele>
        <time>2026-01-18T08:40:04.452Z</time>
      </trkpt>
      <trkpt lat="47.60704" lon="-0.73838">
        <ele>52.7</ele>
        <time>2026-01-18T08:40:34.318Z</time>
      </trkpt>
      <trkpt lat="47.6068" lon="-0.73862">
        <ele>53.5</ele>
        <time>2026-01-18T08:40:45.856Z</time>
      </trkpt>
      <trkpt lat="47.60649" lon="-0.739">
        <ele>54</ele>
        <time>2026-01-18T08:41:01.456Z</time>
      </trkpt>
      <trkpt lat="47.60633" lon="-0.7392">
        <ele>54</ele>
        <time>2026-01-18T08:41:09.407Z</time>
      </trkpt>
      <trkpt lat="47.60575" lon="-0.7398">
        <ele>52</ele>
        <time>2026-01-18T08:41:35.196Z</time>
      </trkpt>
      <trkpt lat="47.60556" lon="-0.74003">
        <ele>51.9</ele>
        <time>2026-01-18T08:41:44.456Z</time>
      </trkpt>
      <trkpt lat="47.60545" lon="-0.74021">
        <ele>51.5</ele>
        <time>2026-01-18T08:41:50.460Z</time>
      </trkpt>
      <trkpt lat="47.6052" lon="-0.74051">
        <ele>51.2</ele>
        <time>2026-01-18T08:42:02.505Z</time>
      </trkpt>
      <trkpt lat="47.60498" lon="-0.74069">
        <ele>51</ele>
        <time>2026-01-18T08:42:11.935Z</time>
        <extensions>
          <visugpx:TrkExtension xmlns:visugpx="https://www.visugpx.com/editgpx/">
            <visugpx:node>7</visugpx:node>
            </visugpx:TrkExtension>
        </extensions>
      </trkpt>
      <trkpt lat="47.60491" lon="-0.74075">
        <ele>51.1</ele>
        <time>2026-01-18T08:42:15.071Z</time>
      </trkpt>
      <trkpt lat="47.6047" lon="-0.74091">
        <ele>51.4</ele>
        <time>2026-01-18T08:42:24.233Z</time>
      </trkpt>
      <trkpt lat="47.60452" lon="-0.74105">
        <ele>52.7</ele>
        <time>2026-01-18T08:42:32.962Z</time>
      </trkpt>
      <trkpt lat="47.60433" lon="-0.74121">
        <ele>53</ele>
        <time>2026-01-18T08:42:41.456Z</time>
      </trkpt>
      <trkpt lat="47.6041" lon="-0.74145">
        <ele>53.4</ele>
        <time>2026-01-18T08:42:52.398Z</time>
      </trkpt>
      <trkpt lat="47.60393" lon="-0.74166">
        <ele>54</ele>
        <time>2026-01-18T08:43:01.209Z</time>
      </trkpt>
      <trkpt lat="47.6037" lon="-0.742">
        <ele>54.9</ele>
        <time>2026-01-18T08:43:14.155Z</time>
      </trkpt>
      <trkpt lat="47.60334" lon="-0.74257">
        <ele>56</ele>
        <time>2026-01-18T08:43:34.888Z</time>
      </trkpt>
      <trkpt lat="47.6033" lon="-0.74264">
        <ele>56.1</ele>
        <time>2026-01-18T08:43:37.304Z</time>
      </trkpt>
      <trkpt lat="47.60305" lon="-0.74303">
        <ele>57</ele>
        <time>2026-01-18T08:43:51.691Z</time>
      </trkpt>
      <trkpt lat="47.60269" lon="-0.74359">
        <ele>57.3</ele>
        <time>2026-01-18T08:44:11.701Z</time>
      </trkpt>
      <trkpt lat="47.60261" lon="-0.74372">
        <ele>57.6</ele>
        <time>2026-01-18T08:44:16.411Z</time>
      </trkpt>
      <trkpt lat="47.60252" lon="-0.74385">
        <ele>57.9</ele>
        <time>2026-01-18T08:44:21.385Z</time>
      </trkpt>
      <trkpt lat="47.60245" lon="-0.74393">
        <ele>58.2</ele>
        <time>2026-01-18T08:44:24.950Z</time>
      </trkpt>
      <trkpt lat="47.60241" lon="-0.74405">
        <ele>58.1</ele>
        <time>2026-01-18T08:44:28.322Z</time>
      </trkpt>
      <trkpt lat="47.60237" lon="-0.74419">
        <ele>58</ele>
        <time>2026-01-18T08:44:32.159Z</time>
      </trkpt>
      <trkpt lat="47.60232" lon="-0.7443">
        <ele>58</ele>
        <time>2026-01-18T08:44:35.558Z</time>
      </trkpt>
      <trkpt lat="47.60138" lon="-0.74652">
        <ele>57</ele>
        <time>2026-01-18T08:45:42.133Z</time>
      </trkpt>
      <trkpt lat="47.60116" lon="-0.74706">
        <ele>57.8</ele>
        <time>2026-01-18T08:45:58.820Z</time>
      </trkpt>
      <trkpt lat="47.60104" lon="-0.74736">
        <ele>58</ele>
        <time>2026-01-18T08:46:07.883Z</time>
      </trkpt>
      <trkpt lat="47.60098" lon="-0.7475">
        <ele>58</ele>
        <time>2026-01-18T08:46:12.133Z</time>
      </trkpt>
      <trkpt lat="47.60072" lon="-0.74825">
        <ele>58.3</ele>
        <time>2026-01-18T08:46:33.927Z</time>
      </trkpt>
      <trkpt lat="47.60069" lon="-0.74832">
        <ele>58.5</ele>
        <time>2026-01-18T08:46:36.191Z</time>
      </trkpt>
      <trkpt lat="47.60041" lon="-0.74937">
        <ele>59</ele>
        <time>2026-01-18T08:47:05.433Z</time>
      </trkpt>
      <trkpt lat="47.60024" lon="-0.74993">
        <ele>59.8</ele>
        <time>2026-01-18T08:47:21.691Z</time>
      </trkpt>
      <trkpt lat="47.60014" lon="-0.75025">
        <ele>60</ele>
        <time>2026-01-18T08:47:30.853Z</time>
      </trkpt>
      <trkpt lat="47.5999" lon="-0.75078">
        <ele>60.9</ele>
        <time>2026-01-18T08:47:47.803Z</time>
      </trkpt>
      <trkpt lat="47.59978" lon="-0.75099">
        <ele>61</ele>
        <time>2026-01-18T08:47:54.918Z</time>
      </trkpt>
      <trkpt lat="47.59939" lon="-0.75167">
        <ele>63.2</ele>
        <time>2026-01-18T08:48:19.326Z</time>
      </trkpt>
      <trkpt lat="47.59927" lon="-0.75191">
        <ele>63.6</ele>
        <time>2026-01-18T08:48:27.243Z</time>
      </trkpt>
      <trkpt lat="47.59906" lon="-0.75247">
        <ele>63.9</ele>
        <time>2026-01-18T08:48:43.848Z</time>
      </trkpt>
      <trkpt lat="47.59902" lon="-0.75262">
        <ele>64</ele>
        <time>2026-01-18T08:48:48.044Z</time>
      </trkpt>
      <trkpt lat="47.59893" lon="-0.7529">
        <ele>63.9</ele>
        <time>2026-01-18T08:48:55.933Z</time>
      </trkpt>
      <trkpt lat="47.59889" lon="-0.75299">
        <ele>64</ele>
        <time>2026-01-18T08:48:58.759Z</time>
      </trkpt>
      <trkpt lat="47.5988" lon="-0.75328">
        <ele>64.3</ele>
        <time>2026-01-18T08:49:07.131Z</time>
      </trkpt>
      <trkpt lat="47.59873" lon="-0.75349">
        <ele>64.2</ele>
        <time>2026-01-18T08:49:13.074Z</time>
      </trkpt>
      <trkpt lat="47.59849" lon="-0.75398">
        <ele>64.4</ele>
        <time>2026-01-18T08:49:28.716Z</time>
      </trkpt>
      <trkpt lat="47.59829" lon="-0.75444">
        <ele>64.2</ele>
        <time>2026-01-18T08:49:42.622Z</time>
      </trkpt>
      <trkpt lat="47.59816" lon="-0.75466">
        <ele>64.9</ele>
        <time>2026-01-18T08:49:50.604Z</time>
      </trkpt>
      <trkpt lat="47.59808" lon="-0.75478">
        <ele>65</ele>
        <time>2026-01-18T08:49:54.990Z</time>
      </trkpt>
      <trkpt lat="47.59794" lon="-0.75493">
        <ele>65.1</ele>
        <time>2026-01-18T08:50:01.616Z</time>
      </trkpt>
      <trkpt lat="47.59758" lon="-0.75531">
        <ele>65.6</ele>
        <time>2026-01-18T08:50:18.723Z</time>
      </trkpt>
      <trkpt lat="47.59676" lon="-0.75616">
        <ele>66.7</ele>
        <time>2026-01-18T08:50:57.436Z</time>
      </trkpt>
      <trkpt lat="47.5961" lon="-0.75684">
        <ele>67.4</ele>
        <time>2026-01-18T08:51:28.414Z</time>
      </trkpt>
      <trkpt lat="47.59572" lon="-0.75715">
        <ele>66.3</ele>
        <time>2026-01-18T08:51:44.292Z</time>
      </trkpt>
      <trkpt lat="47.59556" lon="-0.75735">
        <ele>65.5</ele>
        <time>2026-01-18T08:51:51.829Z</time>
      </trkpt>
      <trkpt lat="47.59535" lon="-0.75757">
        <ele>64.8</ele>
        <time>2026-01-18T08:52:01.219Z</time>
      </trkpt>
      <trkpt lat="47.59516" lon="-0.75782">
        <ele>63.9</ele>
        <time>2026-01-18T08:52:10.398Z</time>
      </trkpt>
      <trkpt lat="47.59501" lon="-0.75807">
        <ele>63</ele>
        <time>2026-01-18T08:52:18.509Z</time>
      </trkpt>
      <trkpt lat="47.59486" lon="-0.75836">
        <ele>63</ele>
        <time>2026-01-18T08:52:27.875Z</time>
      </trkpt>
      <trkpt lat="47.59477" lon="-0.75855">
        <ele>62.9</ele>
        <time>2026-01-18T08:52:33.766Z</time>
      </trkpt>
      <trkpt lat="47.59466" lon="-0.75872">
        <ele>62.5</ele>
        <time>2026-01-18T08:52:39.584Z</time>
      </trkpt>
      <trkpt lat="47.59459" lon="-0.75882">
        <ele>62.1</ele>
        <time>2026-01-18T08:52:43.072Z</time>
      </trkpt>
      <trkpt lat="47.59455" lon="-0.75889">
        <ele>62</ele>
        <time>2026-01-18T08:52:45.367Z</time>
      </trkpt>
      <trkpt lat="47.59416" lon="-0.75936">
        <ele>63</ele>
        <time>2026-01-18T08:53:05.118Z</time>
      </trkpt>
      <trkpt lat="47.59343" lon="-0.7603">
        <ele>64</ele>
        <time>2026-01-18T08:53:42.487Z</time>
      </trkpt>
      <trkpt lat="47.59318" lon="-0.76064">
        <ele>64.7</ele>
        <time>2026-01-18T08:53:55.837Z</time>
      </trkpt>
      <trkpt lat="47.59306" lon="-0.76078">
        <ele>65</ele>
        <time>2026-01-18T08:54:01.835Z</time>
        <extensions>
          <visugpx:TrkExtension xmlns:visugpx="https://www.visugpx.com/editgpx/">
            <visugpx:node>8</visugpx:node>
            </visugpx:TrkExtension>
        </extensions>
      </trkpt>
      <trkpt lat="47.593" lon="-0.76086">
        <ele>65</ele>
        <time>2026-01-18T08:54:04.901Z</time>
      </trkpt>
      <trkpt lat="47.59278" lon="-0.76115">
        <ele>66</ele>
        <time>2026-01-18T08:54:16.777Z</time>
      </trkpt>
      <trkpt lat="47.59264" lon="-0.7613">
        <ele>66</ele>
        <time>2026-01-18T08:54:23.341Z</time>
      </trkpt>
      <trkpt lat="47.59245" lon="-0.76145">
        <ele>66.2</ele>
        <time>2026-01-18T08:54:31.646Z</time>
      </trkpt>
      <trkpt lat="47.59223" lon="-0.76162">
        <ele>67</ele>
        <time>2026-01-18T08:54:41.621Z</time>
      </trkpt>
      <trkpt lat="47.59191" lon="-0.76177">
        <ele>68.1</ele>
        <time>2026-01-18T08:54:55.130Z</time>
      </trkpt>
      <trkpt lat="47.59166" lon="-0.7619">
        <ele>68.2</ele>
        <time>2026-01-18T08:55:05.259Z</time>
      </trkpt>
      <trkpt lat="47.59157" lon="-0.76197">
        <ele>68.7</ele>
        <time>2026-01-18T08:55:09.486Z</time>
      </trkpt>
      <trkpt lat="47.59137" lon="-0.7621">
        <ele>69.4</ele>
        <time>2026-01-18T08:55:18.264Z</time>
      </trkpt>
      <trkpt lat="47.59113" lon="-0.76228">
        <ele>68.1</ele>
        <time>2026-01-18T08:55:27.837Z</time>
      </trkpt>
      <trkpt lat="47.59082" lon="-0.76254">
        <ele>67.9</ele>
        <time>2026-01-18T08:55:41.252Z</time>
      </trkpt>
      <trkpt lat="47.59068" lon="-0.76265">
        <ele>67.1</ele>
        <time>2026-01-18T08:55:46.879Z</time>
      </trkpt>
      <trkpt lat="47.59059" lon="-0.7627">
        <ele>66.5</ele>
        <time>2026-01-18T08:55:50.250Z</time>
      </trkpt>
      <trkpt lat="47.59049" lon="-0.7627">
        <ele>66</ele>
        <time>2026-01-18T08:55:53.802Z</time>
      </trkpt>
      <trkpt lat="47.59038" lon="-0.76269">
        <ele>65.7</ele>
        <time>2026-01-18T08:55:57.827Z</time>
      </trkpt>
      <trkpt lat="47.5903" lon="-0.76265">
        <ele>65.5</ele>
        <time>2026-01-18T08:56:00.925Z</time>
      </trkpt>
      <trkpt lat="47.59016" lon="-0.76255">
        <ele>65</ele>
        <time>2026-01-18T08:56:06.564Z</time>
      </trkpt>
      <trkpt lat="47.58994" lon="-0.76236">
        <ele>63.6</ele>
        <time>2026-01-18T08:56:15.561Z</time>
      </trkpt>
      <trkpt lat="47.58974" lon="-0.76218">
        <ele>62.1</ele>
        <time>2026-01-18T08:56:23.754Z</time>
      </trkpt>
      <trkpt lat="47.58953" lon="-0.76194">
        <ele>61.3</ele>
        <time>2026-01-18T08:56:33.400Z</time>
      </trkpt>
      <trkpt lat="47.58945" lon="-0.76186">
        <ele>61.3</ele>
        <time>2026-01-18T08:56:37.067Z</time>
      </trkpt>
      <trkpt lat="47.58931" lon="-0.76174">
        <ele>61.7</ele>
        <time>2026-01-18T08:56:43.478Z</time>
      </trkpt>
      <trkpt lat="47.58901" lon="-0.76155">
        <ele>61.7</ele>
        <time>2026-01-18T08:56:55.875Z</time>
      </trkpt>
      <trkpt lat="47.58874" lon="-0.76132">
        <ele>61.6</ele>
        <time>2026-01-18T08:57:07.648Z</time>
      </trkpt>
      <trkpt lat="47.58851" lon="-0.76113">
        <ele>61.9</ele>
        <time>2026-01-18T08:57:17.842Z</time>
      </trkpt>
      <trkpt lat="47.58843" lon="-0.76105">
        <ele>62.2</ele>
        <time>2026-01-18T08:57:21.714Z</time>
      </trkpt>
      <trkpt lat="47.58834" lon="-0.76095">
        <ele>62.6</ele>
        <time>2026-01-18T08:57:26.265Z</time>
      </trkpt>
      <trkpt lat="47.58823" lon="-0.76085">
        <ele>62.6</ele>
        <time>2026-01-18T08:57:31.169Z</time>
      </trkpt>
      <trkpt lat="47.58817" lon="-0.7608">
        <ele>62.5</ele>
        <time>2026-01-18T08:57:33.727Z</time>
      </trkpt>
      <trkpt lat="47.5881" lon="-0.76077">
        <ele>62.4</ele>
        <time>2026-01-18T08:57:36.438Z</time>
      </trkpt>
      <trkpt lat="47.58784" lon="-0.76066">
        <ele>62.6</ele>
        <time>2026-01-18T08:57:46.837Z</time>
      </trkpt>
      <trkpt lat="47.58759" lon="-0.76058">
        <ele>62.9</ele>
        <time>2026-01-18T08:57:56.746Z</time>
      </trkpt>
      <trkpt lat="47.58745" lon="-0.76053">
        <ele>63.1</ele>
        <time>2026-01-18T08:58:02.346Z</time>
      </trkpt>
      <trkpt lat="47.58736" lon="-0.7605">
        <ele>63.2</ele>
        <time>2026-01-18T08:58:05.914Z</time>
      </trkpt>
      <trkpt lat="47.58722" lon="-0.76047">
        <ele>63.3</ele>
        <time>2026-01-18T08:58:11.352Z</time>
      </trkpt>
      <trkpt lat="47.58697" lon="-0.76043">
        <ele>63.5</ele>
        <time>2026-01-18T08:58:21.032Z</time>
      </trkpt>
      <trkpt lat="47.58677" lon="-0.7604">
        <ele>63.9</ele>
        <time>2026-01-18T08:58:28.932Z</time>
      </trkpt>
      <trkpt lat="47.58656" lon="-0.76034">
        <ele>64.3</ele>
        <time>2026-01-18T08:58:37.319Z</time>
      </trkpt>
      <trkpt lat="47.58635" lon="-0.76025">
        <ele>64.1</ele>
        <time>2026-01-18T08:58:45.509Z</time>
      </trkpt>
      <trkpt lat="47.58614" lon="-0.76015">
        <ele>64</ele>
        <time>2026-01-18T08:58:53.831Z</time>
      </trkpt>
      <trkpt lat="47.58595" lon="-0.7601">
        <ele>64.5</ele>
        <time>2026-01-18T08:59:01.499Z</time>
      </trkpt>
      <trkpt lat="47.58578" lon="-0.76005">
        <ele>64.9</ele>
        <time>2026-01-18T08:59:08.349Z</time>
      </trkpt>
      <trkpt lat="47.58571" lon="-0.76005">
        <ele>64.9</ele>
        <time>2026-01-18T08:59:11.009Z</time>
      </trkpt>
      <trkpt lat="47.58561" lon="-0.76005">
        <ele>65</ele>
        <time>2026-01-18T08:59:14.872Z</time>
      </trkpt>
      <trkpt lat="47.58558" lon="-0.76008">
        <ele>65</ele>
        <time>2026-01-18T08:59:16.247Z</time>
      </trkpt>
      <trkpt lat="47.58555" lon="-0.7601">
        <ele>65</ele>
        <time>2026-01-18T08:59:17.497Z</time>
      </trkpt>
      <trkpt lat="47.58551" lon="-0.76013">
        <ele>65</ele>
        <time>2026-01-18T08:59:19.201Z</time>
      </trkpt>
      <trkpt lat="47.58547" lon="-0.76016">
        <ele>65</ele>
        <time>2026-01-18T08:59:20.904Z</time>
      </trkpt>
      <trkpt lat="47.58543" lon="-0.76019">
        <ele>65</ele>
        <time>2026-01-18T08:59:22.607Z</time>
      </trkpt>
      <trkpt lat="47.58537" lon="-0.7602">
        <ele>65</ele>
        <time>2026-01-18T08:59:24.902Z</time>
      </trkpt>
      <trkpt lat="47.58534" lon="-0.7602">
        <ele>65</ele>
        <time>2026-01-18T08:59:26.042Z</time>
      </trkpt>
      <trkpt lat="47.58529" lon="-0.7602">
        <ele>65</ele>
        <time>2026-01-18T08:59:27.942Z</time>
      </trkpt>
      <trkpt lat="47.58522" lon="-0.76018">
        <ele>65.3</ele>
        <time>2026-01-18T08:59:30.864Z</time>
      </trkpt>
      <trkpt lat="47.5852" lon="-0.76018">
        <ele>65.5</ele>
        <time>2026-01-18T08:59:31.802Z</time>
      </trkpt>
      <trkpt lat="47.58515" lon="-0.76017">
        <ele>65.7</ele>
        <time>2026-01-18T08:59:33.860Z</time>
      </trkpt>
      <trkpt lat="47.58507" lon="-0.76016">
        <ele>66.2</ele>
        <time>2026-01-18T08:59:37.295Z</time>
      </trkpt>
      <trkpt lat="47.58499" lon="-0.76014">
        <ele>66.6</ele>
        <time>2026-01-18T08:59:40.670Z</time>
      </trkpt>
      <trkpt lat="47.58492" lon="-0.76013">
        <ele>66.9</ele>
        <time>2026-01-18T08:59:43.557Z</time>
      </trkpt>
      <trkpt lat="47.58485" lon="-0.76012">
        <ele>67.3</ele>
        <time>2026-01-18T08:59:46.530Z</time>
      </trkpt>
      <trkpt lat="47.58478" lon="-0.76012">
        <ele>67.7</ele>
        <time>2026-01-18T08:59:49.492Z</time>
      </trkpt>
      <trkpt lat="47.58472" lon="-0.76013">
        <ele>68</ele>
        <time>2026-01-18T08:59:52.006Z</time>
      </trkpt>
      <trkpt lat="47.58465" lon="-0.76016">
        <ele>68.4</ele>
        <time>2026-01-18T08:59:55.074Z</time>
      </trkpt>
      <trkpt lat="47.58459" lon="-0.7602">
        <ele>68.6</ele>
        <time>2026-01-18T08:59:57.710Z</time>
      </trkpt>
      <trkpt lat="47.58452" lon="-0.76025">
        <ele>68.8</ele>
        <time>2026-01-18T09:00:00.796Z</time>
      </trkpt>
      <trkpt lat="47.58447" lon="-0.76029">
        <ele>68.9</ele>
        <time>2026-01-18T09:00:03.020Z</time>
      </trkpt>
      <trkpt lat="47.58443" lon="-0.76032">
        <ele>69.1</ele>
        <time>2026-01-18T09:00:04.867Z</time>
      </trkpt>
      <trkpt lat="47.5844" lon="-0.76034">
        <ele>69.3</ele>
        <time>2026-01-18T09:00:06.270Z</time>
      </trkpt>
      <trkpt lat="47.58434" lon="-0.76038">
        <ele>69.8</ele>
        <time>2026-01-18T09:00:09.175Z</time>
      </trkpt>
      <trkpt lat="47.58432" lon="-0.76033">
        <ele>69.9</ele>
        <time>2026-01-18T09:00:10.731Z</time>
      </trkpt>
      <trkpt lat="47.58386" lon="-0.76069">
        <ele>72.7</ele>
        <time>2026-01-18T09:00:32.581Z</time>
      </trkpt>
      <trkpt lat="47.5838" lon="-0.76075">
        <ele>73.1</ele>
        <time>2026-01-18T09:00:35.631Z</time>
      </trkpt>
      <trkpt lat="47.58376" lon="-0.76082">
        <ele>73.4</ele>
        <time>2026-01-18T09:00:38.201Z</time>
      </trkpt>
      <trkpt lat="47.5837" lon="-0.76099">
        <ele>73.7</ele>
        <time>2026-01-18T09:00:43.318Z</time>
      </trkpt>
      <trkpt lat="47.58368" lon="-0.76108">
        <ele>73.6</ele>
        <time>2026-01-18T09:00:45.689Z</time>
      </trkpt>
      <trkpt lat="47.58365" lon="-0.76114">
        <ele>73.7</ele>
        <time>2026-01-18T09:00:47.669Z</time>
      </trkpt>
      <trkpt lat="47.58363" lon="-0.76119">
        <ele>73.9</ele>
        <time>2026-01-18T09:00:49.306Z</time>
      </trkpt>
      <trkpt lat="47.5836" lon="-0.76123">
        <ele>74.1</ele>
        <time>2026-01-18T09:00:50.986Z</time>
      </trkpt>
      <trkpt lat="47.58357" lon="-0.76127">
        <ele>74.2</ele>
        <time>2026-01-18T09:00:52.586Z</time>
      </trkpt>
      <trkpt lat="47.58353" lon="-0.7613">
        <ele>74.4</ele>
        <time>2026-01-18T09:00:54.433Z</time>
      </trkpt>
      <trkpt lat="47.58347" lon="-0.76133">
        <ele>74.6</ele>
        <time>2026-01-18T09:00:56.976Z</time>
      </trkpt>
      <trkpt lat="47.58339" lon="-0.76136">
        <ele>74.9</ele>
        <time>2026-01-18T09:01:00.321Z</time>
      </trkpt>
      <trkpt lat="47.58331" lon="-0.7614">
        <ele>75</ele>
        <time>2026-01-18T09:01:03.592Z</time>
      </trkpt>
      <trkpt lat="47.58328" lon="-0.7614">
        <ele>75.2</ele>
        <time>2026-01-18T09:01:04.889Z</time>
      </trkpt>
      <trkpt lat="47.58322" lon="-0.76142">
        <ele>75.3</ele>
        <time>2026-01-18T09:01:07.290Z</time>
      </trkpt>
      <trkpt lat="47.58318" lon="-0.76144">
        <ele>75.5</ele>
        <time>2026-01-18T09:01:09.039Z</time>
      </trkpt>
      <trkpt lat="47.58314" lon="-0.76148">
        <ele>75.6</ele>
        <time>2026-01-18T09:01:10.939Z</time>
      </trkpt>
      <trkpt lat="47.58308" lon="-0.76158">
        <ele>75.9</ele>
        <time>2026-01-18T09:01:14.576Z</time>
      </trkpt>
      <trkpt lat="47.58304" lon="-0.76158">
        <ele>76</ele>
        <time>2026-01-18T09:01:16.162Z</time>
      </trkpt>
      <trkpt lat="47.58297" lon="-0.76158">
        <ele>76.1</ele>
        <time>2026-01-18T09:01:18.886Z</time>
      </trkpt>
      <trkpt lat="47.58202" lon="-0.76217">
        <ele>77.8</ele>
        <time>2026-01-18T09:01:59.123Z</time>
      </trkpt>
      <trkpt lat="47.58191" lon="-0.76224">
        <ele>77.9</ele>
        <time>2026-01-18T09:02:03.734Z</time>
      </trkpt>
      <trkpt lat="47.58183" lon="-0.76229">
        <ele>77.9</ele>
        <time>2026-01-18T09:02:07.033Z</time>
      </trkpt>
      <trkpt lat="47.58152" lon="-0.76241">
        <ele>78</ele>
        <time>2026-01-18T09:02:19.270Z</time>
      </trkpt>
      <trkpt lat="47.58135" lon="-0.76248">
        <ele>78.1</ele>
        <time>2026-01-18T09:02:26.036Z</time>
      </trkpt>
      <trkpt lat="47.58069" lon="-0.76265">
        <ele>80.2</ele>
        <time>2026-01-18T09:02:52.927Z</time>
      </trkpt>
      <trkpt lat="47.58036" lon="-0.76278">
        <ele>80.7</ele>
        <time>2026-01-18T09:03:06.222Z</time>
      </trkpt>
      <trkpt lat="47.57965" lon="-0.76308">
        <ele>82.2</ele>
        <time>2026-01-18T09:03:35.259Z</time>
      </trkpt>
      <trkpt lat="47.57913" lon="-0.76337">
        <ele>83.1</ele>
        <time>2026-01-18T09:03:56.951Z</time>
      </trkpt>
      <trkpt lat="47.57887" lon="-0.76352">
        <ele>83.3</ele>
        <time>2026-01-18T09:04:07.678Z</time>
      </trkpt>
      <trkpt lat="47.57872" lon="-0.76361">
        <ele>83</ele>
        <time>2026-01-18T09:04:13.658Z</time>
      </trkpt>
      <trkpt lat="47.57816" lon="-0.76392">
        <ele>83.6</ele>
        <time>2026-01-18T09:04:36.751Z</time>
      </trkpt>
      <trkpt lat="47.57769" lon="-0.76418">
        <ele>84</ele>
        <time>2026-01-18T09:04:56.064Z</time>
      </trkpt>
      <trkpt lat="47.57746" lon="-0.76437">
        <ele>84.1</ele>
        <time>2026-01-18T09:05:06.131Z</time>
      </trkpt>
      <trkpt lat="47.57736" lon="-0.76447">
        <ele>84.5</ele>
        <time>2026-01-18T09:05:10.990Z</time>
        <extensions>
          <visugpx:TrkExtension xmlns:visugpx="https://www.visugpx.com/editgpx/">
            <visugpx:node>9</visugpx:node>
            </visugpx:TrkExtension>
        </extensions>
      </trkpt>
      <trkpt lat="47.57674" lon="-0.7651">
        <ele>84.7</ele>
        <time>2026-01-18T09:05:39.676Z</time>
      </trkpt>
      <trkpt lat="47.5765" lon="-0.76539">
        <ele>85</ele>
        <time>2026-01-18T09:05:51.630Z</time>
      </trkpt>
      <trkpt lat="47.57644" lon="-0.76557">
        <ele>85</ele>
        <time>2026-01-18T09:05:56.777Z</time>
      </trkpt>
      <trkpt lat="47.57641" lon="-0.76563">
        <ele>85</ele>
        <time>2026-01-18T09:05:58.691Z</time>
      </trkpt>
      <trkpt lat="47.57625" lon="-0.76624">
        <ele>86</ele>
        <time>2026-01-18T09:06:16.130Z</time>
      </trkpt>
      <trkpt lat="47.57608" lon="-0.76701">
        <ele>85.8</ele>
        <time>2026-01-18T09:06:36.780Z</time>
      </trkpt>
      <trkpt lat="47.57599" lon="-0.76739">
        <ele>85.4</ele>
        <time>2026-01-18T09:06:46.875Z</time>
        <extensions>
          <visugpx:TrkExtension xmlns:visugpx="https://www.visugpx.com/editgpx/">
            <visugpx:node>10</visugpx:node>
            </visugpx:TrkExtension>
        </extensions>
      </trkpt>
      <trkpt lat="47.57594" lon="-0.76758">
        <ele>85.4</ele>
        <time>2026-01-18T09:06:52.104Z</time>
        <extensions>
          <visugpx:TrkExtension xmlns:visugpx="https://www.visugpx.com/editgpx/">
            <visugpx:node>11</visugpx:node>
            </visugpx:TrkExtension>
        </extensions>
      </trkpt>
      <trkpt lat="47.57668" lon="-0.76824">
        <ele>85</ele>
        <time>2026-01-18T09:07:24.683Z</time>
        <extensions>
          <visugpx:TrkExtension xmlns:visugpx="https://www.visugpx.com/editgpx/">
            <visugpx:node>12</visugpx:node>
            </visugpx:TrkExtension>
        </extensions>
      </trkpt>
      <trkpt lat="47.57731" lon="-0.76891">
        <ele>83.7</ele>
        <time>2026-01-18T09:07:53.410Z</time>
        <extensions>
          <visugpx:TrkExtension xmlns:visugpx="https://www.visugpx.com/editgpx/">
            <visugpx:node>13</visugpx:node>
            </visugpx:TrkExtension>
        </extensions>
      </trkpt>
      <trkpt lat="47.57774" lon="-0.76901">
        <ele>82.5</ele>
        <time>2026-01-18T09:08:09.298Z</time>
        <extensions>
          <visugpx:TrkExtension xmlns:visugpx="https://www.visugpx.com/editgpx/">
            <visugpx:node>14</visugpx:node>
            </visugpx:TrkExtension>
        </extensions>
      </trkpt>
      <trkpt lat="47.57782" lon="-0.76903">
        <ele>82.4</ele>
        <time>2026-01-18T09:08:12.323Z</time>
      </trkpt>
      <trkpt lat="47.57813" lon="-0.76921">
        <ele>81.7</ele>
        <time>2026-01-18T09:08:24.585Z</time>
      </trkpt>
      <trkpt lat="47.57843" lon="-0.76941">
        <ele>80.7</ele>
        <time>2026-01-18T09:08:36.548Z</time>
      </trkpt>
      <trkpt lat="47.57869" lon="-0.76961">
        <ele>80.3</ele>
        <time>2026-01-18T09:08:47.449Z</time>
      </trkpt>
      <trkpt lat="47.5787" lon="-0.76962">
        <ele>80.3</ele>
        <time>2026-01-18T09:08:47.908Z</time>
        <extensions>
          <visugpx:TrkExtension xmlns:visugpx="https://www.visugpx.com/editgpx/">
            <visugpx:node>15</visugpx:node>
            </visugpx:TrkExtension>
        </extensions>
      </trkpt>
      <trkpt lat="47.57893" lon="-0.7698">
        <ele>79.9</ele>
        <time>2026-01-18T09:08:57.563Z</time>
      </trkpt>
      <trkpt lat="47.57925" lon="-0.77009">
        <ele>78.7</ele>
        <time>2026-01-18T09:09:11.176Z</time>
      </trkpt>
      <trkpt lat="47.57943" lon="-0.77031">
        <ele>78.2</ele>
        <time>2026-01-18T09:09:19.762Z</time>
      </trkpt>
      <trkpt lat="47.57949" lon="-0.7704">
        <ele>78.3</ele>
        <time>2026-01-18T09:09:23.069Z</time>
      </trkpt>
      <trkpt lat="47.57958" lon="-0.77051">
        <ele>78.3</ele>
        <time>2026-01-18T09:09:27.502Z</time>
      </trkpt>
      <trkpt lat="47.57967" lon="-0.7706">
        <ele>78.2</ele>
        <time>2026-01-18T09:09:31.569Z</time>
        <extensions>
          <visugpx:TrkExtension xmlns:visugpx="https://www.visugpx.com/editgpx/">
            <visugpx:node>16</visugpx:node>
            </visugpx:TrkExtension>
        </extensions>
      </trkpt>
      <trkpt lat="47.57977" lon="-0.7707">
        <ele>77.9</ele>
        <time>2026-01-18T09:09:35.988Z</time>
      </trkpt>
      <trkpt lat="47.5799" lon="-0.77083">
        <ele>78</ele>
        <time>2026-01-18T09:09:42.009Z</time>
      </trkpt>
      <trkpt lat="47.58008" lon="-0.77098">
        <ele>77.9</ele>
        <time>2026-01-18T09:09:49.796Z</time>
      </trkpt>
      <trkpt lat="47.58016" lon="-0.77103">
        <ele>77.8</ele>
        <time>2026-01-18T09:09:53.037Z</time>
      </trkpt>
      <trkpt lat="47.58058" lon="-0.77144">
        <ele>77.9</ele>
        <time>2026-01-18T09:10:12.207Z</time>
      </trkpt>
      <trkpt lat="47.58073" lon="-0.77157">
        <ele>77.8</ele>
        <time>2026-01-18T09:10:18.751Z</time>
      </trkpt>
      <trkpt lat="47.58085" lon="-0.77167">
        <ele>78</ele>
        <time>2026-01-18T09:10:24.110Z</time>
      </trkpt>
      <trkpt lat="47.58093" lon="-0.77168">
        <ele>78</ele>
        <time>2026-01-18T09:10:27.161Z</time>
      </trkpt>
      <trkpt lat="47.581" lon="-0.77167">
        <ele>78</ele>
        <time>2026-01-18T09:10:29.833Z</time>
      </trkpt>
      <trkpt lat="47.58132" lon="-0.7715">
        <ele>77.4</ele>
        <time>2026-01-18T09:10:42.411Z</time>
      </trkpt>
      <trkpt lat="47.58147" lon="-0.77144">
        <ele>77.4</ele>
        <time>2026-01-18T09:10:48.315Z</time>
      </trkpt>
      <trkpt lat="47.58166" lon="-0.77139">
        <ele>78</ele>
        <time>2026-01-18T09:10:56.057Z</time>
      </trkpt>
      <trkpt lat="47.58178" lon="-0.7714">
        <ele>78</ele>
        <time>2026-01-18T09:11:00.625Z</time>
      </trkpt>
      <trkpt lat="47.5818" lon="-0.77141">
        <ele>78</ele>
        <time>2026-01-18T09:11:01.427Z</time>
      </trkpt>
      <trkpt lat="47.58228" lon="-0.7715">
        <ele>78.2</ele>
        <time>2026-01-18T09:11:19.935Z</time>
      </trkpt>
      <trkpt lat="47.58237" lon="-0.77153">
        <ele>78</ele>
        <time>2026-01-18T09:11:23.329Z</time>
        <extensions>
          <visugpx:TrkExtension xmlns:visugpx="https://www.visugpx.com/editgpx/">
            <visugpx:node>17</visugpx:node>
            </visugpx:TrkExtension>
        </extensions>
      </trkpt>
      <trkpt lat="47.58264" lon="-0.77162">
        <ele>77.8</ele>
        <time>2026-01-18T09:11:33.727Z</time>
      </trkpt>
      <trkpt lat="47.58286" lon="-0.77167">
        <ele>77.7</ele>
        <time>2026-01-18T09:11:42.125Z</time>
      </trkpt>
      <trkpt lat="47.58325" lon="-0.77173">
        <ele>77.2</ele>
        <time>2026-01-18T09:11:56.737Z</time>
      </trkpt>
      <trkpt lat="47.58346" lon="-0.77173">
        <ele>77.1</ele>
        <time>2026-01-18T09:12:04.657Z</time>
      </trkpt>
      <trkpt lat="47.58374" lon="-0.7716">
        <ele>76.5</ele>
        <time>2026-01-18T09:12:15.472Z</time>
      </trkpt>
      <trkpt lat="47.58383" lon="-0.77154">
        <ele>76.2</ele>
        <time>2026-01-18T09:12:19.061Z</time>
      </trkpt>
      <trkpt lat="47.58382" lon="-0.77144">
        <ele>76.2</ele>
        <time>2026-01-18T09:12:21.652Z</time>
      </trkpt>
      <trkpt lat="47.58375" lon="-0.77103">
        <ele>76</ele>
        <time>2026-01-18T09:12:32.374Z</time>
      </trkpt>
      <trkpt lat="47.58372" lon="-0.77081">
        <ele>76</ele>
        <time>2026-01-18T09:12:38.127Z</time>
      </trkpt>
      <trkpt lat="47.58372" lon="-0.77075">
        <ele>76</ele>
        <time>2026-01-18T09:12:39.665Z</time>
        <extensions>
          <visugpx:TrkExtension xmlns:visugpx="https://www.visugpx.com/editgpx/">
            <visugpx:node>18</visugpx:node>
            </visugpx:TrkExtension>
        </extensions>
      </trkpt>
      <trkpt lat="47.58371" lon="-0.77046">
        <ele>75.7</ele>
        <time>2026-01-18T09:12:46.937Z</time>
      </trkpt>
      <trkpt lat="47.5837" lon="-0.76994">
        <ele>75</ele>
        <time>2026-01-18T09:12:59.879Z</time>
      </trkpt>
      <trkpt lat="47.58372" lon="-0.76939">
        <ele>74.9</ele>
        <time>2026-01-18T09:13:13.936Z</time>
      </trkpt>
      <trkpt lat="47.58372" lon="-0.76932">
        <ele>74.8</ele>
        <time>2026-01-18T09:13:15.675Z</time>
        <extensions>
          <visugpx:TrkExtension xmlns:visugpx="https://www.visugpx.com/editgpx/">
            <visugpx:node>19</visugpx:node>
            </visugpx:TrkExtension>
        </extensions>
      </trkpt>
      <trkpt lat="47.58372" lon="-0.76932">
        <ele>74.8</ele>
        <time>2026-01-18T09:13:15.675Z</time>
      </trkpt>
      <trkpt lat="47.58372" lon="-0.76909">
        <ele>74.4</ele>
        <time>2026-01-18T09:13:21.352Z</time>
      </trkpt>
      <trkpt lat="47.58372" lon="-0.76847">
        <ele>73.7</ele>
        <time>2026-01-18T09:13:36.846Z</time>
      </trkpt>
      <trkpt lat="47.58372" lon="-0.76835">
        <ele>73.4</ele>
        <time>2026-01-18T09:13:39.765Z</time>
      </trkpt>
      <trkpt lat="47.58372" lon="-0.76798">
        <ele>73</ele>
        <time>2026-01-18T09:13:49.021Z</time>
      </trkpt>
      <trkpt lat="47.58373" lon="-0.76771">
        <ele>72.8</ele>
        <time>2026-01-18T09:13:55.836Z</time>
      </trkpt>
      <trkpt lat="47.58381" lon="-0.76695">
        <ele>71</ele>
        <time>2026-01-18T09:14:14.603Z</time>
      </trkpt>
      <trkpt lat="47.58383" lon="-0.76682">
        <ele>70.6</ele>
        <time>2026-01-18T09:14:17.818Z</time>
      </trkpt>
      <trkpt lat="47.58386" lon="-0.7666">
        <ele>69.9</ele>
        <time>2026-01-18T09:14:23.220Z</time>
      </trkpt>
      <trkpt lat="47.58388" lon="-0.76646">
        <ele>69.3</ele>
        <time>2026-01-18T09:14:26.606Z</time>
      </trkpt>
      <trkpt lat="47.58394" lon="-0.76612">
        <ele>68.8</ele>
        <time>2026-01-18T09:14:35.336Z</time>
      </trkpt>
      <trkpt lat="47.58397" lon="-0.76592">
        <ele>68.2</ele>
        <time>2026-01-18T09:14:40.282Z</time>
      </trkpt>
      <trkpt lat="47.58401" lon="-0.76566">
        <ele>68</ele>
        <time>2026-01-18T09:14:47.002Z</time>
      </trkpt>
      <trkpt lat="47.58407" lon="-0.76524">
        <ele>67.1</ele>
        <time>2026-01-18T09:14:57.524Z</time>
      </trkpt>
      <trkpt lat="47.58411" lon="-0.76493">
        <ele>67.8</ele>
        <time>2026-01-18T09:15:06.095Z</time>
      </trkpt>
      <trkpt lat="47.58413" lon="-0.76482">
        <ele>67.9</ele>
        <time>2026-01-18T09:15:09.079Z</time>
      </trkpt>
      <trkpt lat="47.5842" lon="-0.76488">
        <ele>67.8</ele>
        <time>2026-01-18T09:15:12.094Z</time>
      </trkpt>
      <trkpt lat="47.58423" lon="-0.76491">
        <ele>67.7</ele>
        <time>2026-01-18T09:15:13.414Z</time>
        <extensions>
          <visugpx:TrkExtension xmlns:visugpx="https://www.visugpx.com/editgpx/">
            <visugpx:node>20</visugpx:node>
            </visugpx:TrkExtension>
        </extensions>
      </trkpt>
      <trkpt lat="47.58425" lon="-0.76493">
        <ele>67.6</ele>
        <time>2026-01-18T09:15:14.280Z</time>
      </trkpt>
      <trkpt lat="47.58437" lon="-0.76507">
        <ele>67.4</ele>
        <time>2026-01-18T09:15:19.967Z</time>
      </trkpt>
      <trkpt lat="47.58444" lon="-0.76514">
        <ele>67.5</ele>
        <time>2026-01-18T09:15:23.239Z</time>
      </trkpt>
      <trkpt lat="47.58476" lon="-0.76555">
        <ele>67</ele>
        <time>2026-01-18T09:15:39.022Z</time>
      </trkpt>
      <trkpt lat="47.58503" lon="-0.7659">
        <ele>67</ele>
        <time>2026-01-18T09:15:52.650Z</time>
      </trkpt>
      <trkpt lat="47.58524" lon="-0.7662">
        <ele>67</ele>
        <time>2026-01-18T09:16:03.732Z</time>
      </trkpt>
      <trkpt lat="47.58539" lon="-0.76642">
        <ele>66.6</ele>
        <time>2026-01-18T09:16:11.525Z</time>
      </trkpt>
      <trkpt lat="47.58555" lon="-0.76667">
        <ele>66</ele>
        <time>2026-01-18T09:16:20.030Z</time>
      </trkpt>
      <trkpt lat="47.58601" lon="-0.76741">
        <ele>65.4</ele>
        <time>2026-01-18T09:16:45.472Z</time>
      </trkpt>
      <trkpt lat="47.58635" lon="-0.76789">
        <ele>65.5</ele>
        <time>2026-01-18T09:17:03.373Z</time>
      </trkpt>
      <trkpt lat="47.58636" lon="-0.7679">
        <ele>65.5</ele>
        <time>2026-01-18T09:17:03.832Z</time>
        <extensions>
          <visugpx:TrkExtension xmlns:visugpx="https://www.visugpx.com/editgpx/">
            <visugpx:node>21</visugpx:node>
            </visugpx:TrkExtension>
        </extensions>
      </trkpt>
      <trkpt lat="47.58638" lon="-0.76794">
        <ele>65.6</ele>
        <time>2026-01-18T09:17:05.176Z</time>
      </trkpt>
      <trkpt lat="47.58674" lon="-0.76841">
        <ele>65.8</ele>
        <time>2026-01-18T09:17:23.527Z</time>
      </trkpt>
      <trkpt lat="47.58721" lon="-0.76904">
        <ele>65.6</ele>
        <time>2026-01-18T09:17:47.484Z</time>
      </trkpt>
      <trkpt lat="47.58739" lon="-0.76924">
        <ele>65.4</ele>
        <time>2026-01-18T09:17:55.914Z</time>
      </trkpt>
      <trkpt lat="47.58764" lon="-0.76901">
        <ele>64.5</ele>
        <time>2026-01-18T09:18:06.612Z</time>
      </trkpt>
      <trkpt lat="47.58804" lon="-0.76868">
        <ele>63.1</ele>
        <time>2026-01-18T09:18:23.256Z</time>
      </trkpt>
      <trkpt lat="47.58827" lon="-0.76851">
        <ele>63</ele>
        <time>2026-01-18T09:18:32.962Z</time>
        <extensions>
          <visugpx:TrkExtension xmlns:visugpx="https://www.visugpx.com/editgpx/">
            <visugpx:node>22</visugpx:node>
            </visugpx:TrkExtension>
        </extensions>
      </trkpt>
      <trkpt lat="47.58842" lon="-0.7684">
        <ele>62.7</ele>
        <time>2026-01-18T09:18:39.152Z</time>
      </trkpt>
      <trkpt lat="47.58881" lon="-0.76807">
        <ele>62</ele>
        <time>2026-01-18T09:18:55.817Z</time>
      </trkpt>
      <trkpt lat="47.58883" lon="-0.76809">
        <ele>62</ele>
        <time>2026-01-18T09:18:56.733Z</time>
      </trkpt>
      <trkpt lat="47.58893" lon="-0.76815">
        <ele>61.9</ele>
        <time>2026-01-18T09:19:00.774Z</time>
      </trkpt>
      <trkpt lat="47.58911" lon="-0.76825">
        <ele>61.2</ele>
        <time>2026-01-18T09:19:07.712Z</time>
      </trkpt>
      <trkpt lat="47.58929" lon="-0.76838">
        <ele>60.9</ele>
        <time>2026-01-18T09:19:15.149Z</time>
      </trkpt>
      <trkpt lat="47.58931" lon="-0.76839">
        <ele>60.9</ele>
        <time>2026-01-18T09:19:15.951Z</time>
      </trkpt>
      <trkpt lat="47.58936" lon="-0.76843">
        <ele>60.8</ele>
        <time>2026-01-18T09:19:18.054Z</time>
      </trkpt>
      <trkpt lat="47.58945" lon="-0.76851">
        <ele>60.4</ele>
        <time>2026-01-18T09:19:21.833Z</time>
      </trkpt>
      <trkpt lat="47.58958" lon="-0.76863">
        <ele>60</ele>
        <time>2026-01-18T09:19:27.434Z</time>
      </trkpt>
      <trkpt lat="47.5897" lon="-0.76879">
        <ele>60</ele>
        <time>2026-01-18T09:19:33.567Z</time>
      </trkpt>
      <trkpt lat="47.58985" lon="-0.76899">
        <ele>59.3</ele>
        <time>2026-01-18T09:19:40.863Z</time>
      </trkpt>
      <trkpt lat="47.59003" lon="-0.76924">
        <ele>58.9</ele>
        <time>2026-01-18T09:19:50.008Z</time>
      </trkpt>
      <trkpt lat="47.59017" lon="-0.76945">
        <ele>59</ele>
        <time>2026-01-18T09:19:57.637Z</time>
      </trkpt>
      <trkpt lat="47.59027" lon="-0.76959">
        <ele>59.5</ele>
        <time>2026-01-18T09:20:03.212Z</time>
      </trkpt>
      <trkpt lat="47.59076" lon="-0.76878">
        <ele>57.6</ele>
        <time>2026-01-18T09:20:30.060Z</time>
        <extensions>
          <visugpx:TrkExtension xmlns:visugpx="https://www.visugpx.com/editgpx/">
            <visugpx:node>23</visugpx:node>
            </visugpx:TrkExtension>
        </extensions>
      </trkpt>
      <trkpt lat="47.591" lon="-0.76839">
        <ele>56.2</ele>
        <time>2026-01-18T09:20:42.866Z</time>
      </trkpt>
      <trkpt lat="47.59108" lon="-0.76822">
        <ele>56.4</ele>
        <time>2026-01-18T09:20:48.307Z</time>
      </trkpt>
      <trkpt lat="47.59121" lon="-0.76802">
        <ele>57</ele>
        <time>2026-01-18T09:20:55.836Z</time>
      </trkpt>
      <trkpt lat="47.59133" lon="-0.7679">
        <ele>57.4</ele>
        <time>2026-01-18T09:21:01.606Z</time>
      </trkpt>
      <trkpt lat="47.59154" lon="-0.76769">
        <ele>58.5</ele>
        <time>2026-01-18T09:21:12.018Z</time>
      </trkpt>
      <trkpt lat="47.59175" lon="-0.76746">
        <ele>59.7</ele>
        <time>2026-01-18T09:21:22.806Z</time>
      </trkpt>
      <trkpt lat="47.59192" lon="-0.76724">
        <ele>60.9</ele>
        <time>2026-01-18T09:21:32.271Z</time>
      </trkpt>
      <trkpt lat="47.59205" lon="-0.76701">
        <ele>62.1</ele>
        <time>2026-01-18T09:21:40.874Z</time>
      </trkpt>
      <trkpt lat="47.59214" lon="-0.76683">
        <ele>62.8</ele>
        <time>2026-01-18T09:21:47.123Z</time>
      </trkpt>
      <trkpt lat="47.5922" lon="-0.76664">
        <ele>63.1</ele>
        <time>2026-01-18T09:21:52.696Z</time>
      </trkpt>
      <trkpt lat="47.59223" lon="-0.76653">
        <ele>63.5</ele>
        <time>2026-01-18T09:21:56.030Z</time>
        <extensions>
          <visugpx:TrkExtension xmlns:visugpx="https://www.visugpx.com/editgpx/">
            <visugpx:node>24</visugpx:node>
            </visugpx:TrkExtension>
        </extensions>
      </trkpt>
      <trkpt lat="47.59225" lon="-0.76647">
        <ele>63.7</ele>
        <time>2026-01-18T09:21:57.889Z</time>
      </trkpt>
      <trkpt lat="47.59227" lon="-0.76634">
        <ele>64.1</ele>
        <time>2026-01-18T09:22:01.594Z</time>
      </trkpt>
      <trkpt lat="47.5923" lon="-0.76615">
        <ele>64.6</ele>
        <time>2026-01-18T09:22:06.945Z</time>
      </trkpt>
      <trkpt lat="47.59231" lon="-0.76589">
        <ele>64.9</ele>
        <time>2026-01-18T09:22:13.813Z</time>
      </trkpt>
      <trkpt lat="47.59231" lon="-0.76563">
        <ele>65.5</ele>
        <time>2026-01-18T09:22:20.891Z</time>
      </trkpt>
      <trkpt lat="47.59229" lon="-0.76533">
        <ele>66</ele>
        <time>2026-01-18T09:22:28.949Z</time>
      </trkpt>
      <trkpt lat="47.59225" lon="-0.76506">
        <ele>66</ele>
        <time>2026-01-18T09:22:36.033Z</time>
      </trkpt>
      <trkpt lat="47.59219" lon="-0.76472">
        <ele>67</ele>
        <time>2026-01-18T09:22:45.752Z</time>
      </trkpt>
      <trkpt lat="47.59209" lon="-0.76428">
        <ele>67.3</ele>
        <time>2026-01-18T09:22:57.840Z</time>
      </trkpt>
      <trkpt lat="47.59206" lon="-0.76413">
        <ele>67.6</ele>
        <time>2026-01-18T09:23:02.052Z</time>
      </trkpt>
      <trkpt lat="47.59226" lon="-0.76404">
        <ele>67.4</ele>
        <time>2026-01-18T09:23:09.878Z</time>
      </trkpt>
      <trkpt lat="47.59258" lon="-0.7639">
        <ele>67</ele>
        <time>2026-01-18T09:23:22.325Z</time>
      </trkpt>
      <trkpt lat="47.59262" lon="-0.76387">
        <ele>67</ele>
        <time>2026-01-18T09:23:24.028Z</time>
        <extensions>
          <visugpx:TrkExtension xmlns:visugpx="https://www.visugpx.com/editgpx/">
            <visugpx:node>25</visugpx:node>
            </visugpx:TrkExtension>
        </extensions>
      </trkpt>
      <trkpt lat="47.59271" lon="-0.76381">
        <ele>67</ele>
        <time>2026-01-18T09:23:27.778Z</time>
      </trkpt>
      <trkpt lat="47.59288" lon="-0.76366">
        <ele>66.9</ele>
        <time>2026-01-18T09:23:35.235Z</time>
      </trkpt>
      <trkpt lat="47.59302" lon="-0.76352">
        <ele>66.7</ele>
        <time>2026-01-18T09:23:41.537Z</time>
      </trkpt>
      <trkpt lat="47.59312" lon="-0.76341">
        <ele>66.2</ele>
        <time>2026-01-18T09:23:46.010Z</time>
      </trkpt>
      <trkpt lat="47.59316" lon="-0.76335">
        <ele>66</ele>
        <time>2026-01-18T09:23:48.067Z</time>
      </trkpt>
      <trkpt lat="47.5932" lon="-0.76326">
        <ele>66</ele>
        <time>2026-01-18T09:23:50.829Z</time>
      </trkpt>
      <trkpt lat="47.59324" lon="-0.76308">
        <ele>66</ele>
        <time>2026-01-18T09:23:55.686Z</time>
      </trkpt>
      <trkpt lat="47.59326" lon="-0.7628">
        <ele>66</ele>
        <time>2026-01-18T09:24:02.902Z</time>
      </trkpt>
      <trkpt lat="47.59326" lon="-0.76267">
        <ele>66</ele>
        <time>2026-01-18T09:24:06.233Z</time>
      </trkpt>
      <trkpt lat="47.59325" lon="-0.76251">
        <ele>66</ele>
        <time>2026-01-18T09:24:10.351Z</time>
      </trkpt>
      <trkpt lat="47.59324" lon="-0.76232">
        <ele>66</ele>
        <time>2026-01-18T09:24:15.235Z</time>
      </trkpt>
      <trkpt lat="47.59323" lon="-0.76224">
        <ele>66</ele>
        <time>2026-01-18T09:24:17.320Z</time>
      </trkpt>
      <trkpt lat="47.59321" lon="-0.76197">
        <ele>66</ele>
        <time>2026-01-18T09:24:24.281Z</time>
      </trkpt>
      <trkpt lat="47.5932" lon="-0.76178">
        <ele>65.7</ele>
        <time>2026-01-18T09:24:28.999Z</time>
      </trkpt>
      <trkpt lat="47.59319" lon="-0.76171">
        <ele>65.6</ele>
        <time>2026-01-18T09:24:30.777Z</time>
      </trkpt>
      <trkpt lat="47.59315" lon="-0.76132">
        <ele>65</ele>
        <time>2026-01-18T09:24:40.554Z</time>
      </trkpt>
      <trkpt lat="47.59312" lon="-0.76104">
        <ele>65</ele>
        <time>2026-01-18T09:24:47.819Z</time>
      </trkpt>
      <trkpt lat="47.5931" lon="-0.76094">
        <ele>65</ele>
        <time>2026-01-18T09:24:50.492Z</time>
      </trkpt>
      <trkpt lat="47.59308" lon="-0.7609">
        <ele>65</ele>
        <time>2026-01-18T09:24:51.768Z</time>
      </trkpt>
      <trkpt lat="47.59307" lon="-0.76089">
        <ele>65</ele>
        <time>2026-01-18T09:24:52.227Z</time>
        <extensions>
          <visugpx:TrkExtension xmlns:visugpx="https://www.visugpx.com/editgpx/">
            <visugpx:node>26</visugpx:node>
            </visugpx:TrkExtension>
        </extensions>
      </trkpt>
      <trkpt lat="47.59305" lon="-0.76088">
        <ele>65</ele>
        <time>2026-01-18T09:24:53.029Z</time>
      </trkpt>
      <trkpt lat="47.593" lon="-0.76086">
        <ele>65</ele>
        <time>2026-01-18T09:24:54.997Z</time>
      </trkpt>
      <trkpt lat="47.59318" lon="-0.76064">
        <ele>64.7</ele>
        <time>2026-01-18T09:25:03.688Z</time>
      </trkpt>
      <trkpt lat="47.59343" lon="-0.7603">
        <ele>64</ele>
        <time>2026-01-18T09:25:16.188Z</time>
      </trkpt>
      <trkpt lat="47.59416" lon="-0.75936">
        <ele>63</ele>
        <time>2026-01-18T09:25:52.345Z</time>
      </trkpt>
      <trkpt lat="47.59455" lon="-0.75889">
        <ele>62</ele>
        <time>2026-01-18T09:26:10.883Z</time>
      </trkpt>
      <trkpt lat="47.59459" lon="-0.75882">
        <ele>62.1</ele>
        <time>2026-01-18T09:26:13.298Z</time>
      </trkpt>
      <trkpt lat="47.59466" lon="-0.75872">
        <ele>62.5</ele>
        <time>2026-01-18T09:26:17.276Z</time>
      </trkpt>
      <trkpt lat="47.59477" lon="-0.75855">
        <ele>62.9</ele>
        <time>2026-01-18T09:26:23.580Z</time>
      </trkpt>
      <trkpt lat="47.59486" lon="-0.75836">
        <ele>63</ele>
        <time>2026-01-18T09:26:29.592Z</time>
      </trkpt>
      <trkpt lat="47.59501" lon="-0.75807">
        <ele>63</ele>
        <time>2026-01-18T09:26:38.958Z</time>
      </trkpt>
      <trkpt lat="47.59516" lon="-0.75782">
        <ele>63.9</ele>
        <time>2026-01-18T09:26:48.168Z</time>
      </trkpt>
      <trkpt lat="47.59535" lon="-0.75757">
        <ele>64.8</ele>
        <time>2026-01-18T09:26:58.445Z</time>
      </trkpt>
      <trkpt lat="47.59556" lon="-0.75735">
        <ele>65.5</ele>
        <time>2026-01-18T09:27:08.687Z</time>
      </trkpt>
      <trkpt lat="47.59572" lon="-0.75715">
        <ele>66.3</ele>
        <time>2026-01-18T09:27:17.200Z</time>
      </trkpt>
      <trkpt lat="47.5961" lon="-0.75684">
        <ele>67.4</ele>
        <time>2026-01-18T09:27:34.415Z</time>
      </trkpt>
      <trkpt lat="47.59676" lon="-0.75616">
        <ele>66.7</ele>
        <time>2026-01-18T09:28:04.545Z</time>
      </trkpt>
      <trkpt lat="47.59758" lon="-0.75531">
        <ele>65.6</ele>
        <time>2026-01-18T09:28:41.924Z</time>
      </trkpt>
      <trkpt lat="47.59794" lon="-0.75493">
        <ele>65.1</ele>
        <time>2026-01-18T09:28:58.426Z</time>
      </trkpt>
      <trkpt lat="47.59808" lon="-0.75478">
        <ele>65</ele>
        <time>2026-01-18T09:29:04.930Z</time>
      </trkpt>
      <trkpt lat="47.59816" lon="-0.75466">
        <ele>64.9</ele>
        <time>2026-01-18T09:29:09.196Z</time>
      </trkpt>
      <trkpt lat="47.59829" lon="-0.75444">
        <ele>64.2</ele>
        <time>2026-01-18T09:29:16.323Z</time>
      </trkpt>
      <trkpt lat="47.59884" lon="-0.75494">
        <ele>63.4</ele>
        <time>2026-01-18T09:29:40.376Z</time>
      </trkpt>
      <trkpt lat="47.59896" lon="-0.75505">
        <ele>63</ele>
        <time>2026-01-18T09:29:45.521Z</time>
      </trkpt>
      <trkpt lat="47.59915" lon="-0.75528">
        <ele>63</ele>
        <time>2026-01-18T09:29:54.841Z</time>
      </trkpt>
      <trkpt lat="47.59926" lon="-0.75544">
        <ele>62.8</ele>
        <time>2026-01-18T09:30:00.580Z</time>
      </trkpt>
      <trkpt lat="47.59937" lon="-0.7556">
        <ele>62.3</ele>
        <time>2026-01-18T09:30:06.169Z</time>
      </trkpt>
      <trkpt lat="47.59949" lon="-0.75579">
        <ele>62</ele>
        <time>2026-01-18T09:30:12.670Z</time>
      </trkpt>
      <trkpt lat="47.59958" lon="-0.75597">
        <ele>62</ele>
        <time>2026-01-18T09:30:18.412Z</time>
      </trkpt>
      <trkpt lat="47.59964" lon="-0.75614">
        <ele>62</ele>
        <time>2026-01-18T09:30:23.329Z</time>
      </trkpt>
      <trkpt lat="47.59967" lon="-0.75622">
        <ele>62</ele>
        <time>2026-01-18T09:30:25.674Z</time>
      </trkpt>
      <trkpt lat="47.59971" lon="-0.75635">
        <ele>62</ele>
        <time>2026-01-18T09:30:29.336Z</time>
      </trkpt>
      <trkpt lat="47.59975" lon="-0.75653">
        <ele>62</ele>
        <time>2026-01-18T09:30:34.192Z</time>
      </trkpt>
      <trkpt lat="47.59985" lon="-0.75683">
        <ele>62</ele>
        <time>2026-01-18T09:30:42.767Z</time>
      </trkpt>
      <trkpt lat="47.59997" lon="-0.75723">
        <ele>61</ele>
        <time>2026-01-18T09:30:53.456Z</time>
      </trkpt>
      <trkpt lat="47.60009" lon="-0.75758">
        <ele>61</ele>
        <time>2026-01-18T09:31:03.517Z</time>
      </trkpt>
      <trkpt lat="47.60029" lon="-0.75808">
        <ele>60</ele>
        <time>2026-01-18T09:31:17.866Z</time>
      </trkpt>
      <trkpt lat="47.60036" lon="-0.75822">
        <ele>60</ele>
        <time>2026-01-18T09:31:22.331Z</time>
      </trkpt>
      <trkpt lat="47.60056" lon="-0.75811">
        <ele>60</ele>
        <time>2026-01-18T09:31:30.437Z</time>
      </trkpt>
      <trkpt lat="47.60088" lon="-0.75799">
        <ele>59.2</ele>
        <time>2026-01-18T09:31:42.540Z</time>
      </trkpt>
      <trkpt lat="47.60116" lon="-0.75787">
        <ele>58.9</ele>
        <time>2026-01-18T09:31:53.441Z</time>
      </trkpt>
      <trkpt lat="47.60138" lon="-0.75775">
        <ele>59</ele>
        <time>2026-01-18T09:32:02.410Z</time>
      </trkpt>
      <trkpt lat="47.60139" lon="-0.75774">
        <ele>59</ele>
        <time>2026-01-18T09:32:02.868Z</time>
        <extensions>
          <visugpx:TrkExtension xmlns:visugpx="https://www.visugpx.com/editgpx/">
            <visugpx:node>27</visugpx:node>
            </visugpx:TrkExtension>
        </extensions>
      </trkpt>
      <trkpt lat="47.60166" lon="-0.75758">
        <ele>58</ele>
        <time>2026-01-18T09:32:13.389Z</time>
      </trkpt>
      <trkpt lat="47.60187" lon="-0.75748">
        <ele>58</ele>
        <time>2026-01-18T09:32:21.770Z</time>
      </trkpt>
      <trkpt lat="47.60203" lon="-0.75745">
        <ele>57.7</ele>
        <time>2026-01-18T09:32:27.730Z</time>
      </trkpt>
      <trkpt lat="47.60226" lon="-0.75743">
        <ele>56.9</ele>
        <time>2026-01-18T09:32:36.063Z</time>
      </trkpt>
      <trkpt lat="47.60265" lon="-0.7574">
        <ele>55.5</ele>
        <time>2026-01-18T09:32:50.169Z</time>
      </trkpt>
      <trkpt lat="47.60301" lon="-0.75739">
        <ele>54.5</ele>
        <time>2026-01-18T09:33:03.309Z</time>
      </trkpt>
      <trkpt lat="47.60313" lon="-0.7574">
        <ele>54.1</ele>
        <time>2026-01-18T09:33:07.664Z</time>
      </trkpt>
      <trkpt lat="47.60325" lon="-0.75744">
        <ele>53.5</ele>
        <time>2026-01-18T09:33:12.039Z</time>
      </trkpt>
      <trkpt lat="47.6035" lon="-0.75755">
        <ele>53.1</ele>
        <time>2026-01-18T09:33:21.721Z</time>
      </trkpt>
      <trkpt lat="47.60368" lon="-0.75764">
        <ele>52.9</ele>
        <time>2026-01-18T09:33:28.823Z</time>
      </trkpt>
      <trkpt lat="47.6039" lon="-0.75777">
        <ele>52</ele>
        <time>2026-01-18T09:33:37.354Z</time>
      </trkpt>
      <trkpt lat="47.604" lon="-0.75783">
        <ele>52</ele>
        <time>2026-01-18T09:33:41.453Z</time>
      </trkpt>
      <trkpt lat="47.6041" lon="-0.75789">
        <ele>52</ele>
        <time>2026-01-18T09:33:45.552Z</time>
      </trkpt>
      <trkpt lat="47.60424" lon="-0.75798">
        <ele>52.3</ele>
        <time>2026-01-18T09:33:51.546Z</time>
      </trkpt>
      <trkpt lat="47.60433" lon="-0.75801">
        <ele>52.7</ele>
        <time>2026-01-18T09:33:55.338Z</time>
      </trkpt>
      <trkpt lat="47.60444" lon="-0.75802">
        <ele>53.1</ele>
        <time>2026-01-18T09:33:59.804Z</time>
      </trkpt>
      <trkpt lat="47.60456" lon="-0.75797">
        <ele>54.1</ele>
        <time>2026-01-18T09:34:05.363Z</time>
      </trkpt>
      <trkpt lat="47.6047" lon="-0.75791">
        <ele>55.4</ele>
        <time>2026-01-18T09:34:12.007Z</time>
      </trkpt>
      <trkpt lat="47.60486" lon="-0.75782">
        <ele>56.3</ele>
        <time>2026-01-18T09:34:19.177Z</time>
      </trkpt>
      <trkpt lat="47.60502" lon="-0.75773">
        <ele>57.2</ele>
        <time>2026-01-18T09:34:26.346Z</time>
      </trkpt>
      <trkpt lat="47.60518" lon="-0.75763">
        <ele>57.5</ele>
        <time>2026-01-18T09:34:33.138Z</time>
      </trkpt>
      <trkpt lat="47.60538" lon="-0.75749">
        <ele>58</ele>
        <time>2026-01-18T09:34:41.872Z</time>
      </trkpt>
      <trkpt lat="47.60551" lon="-0.75735">
        <ele>58</ele>
        <time>2026-01-18T09:34:47.977Z</time>
      </trkpt>
      <trkpt lat="47.60565" lon="-0.7572">
        <ele>57.7</ele>
        <time>2026-01-18T09:34:54.370Z</time>
      </trkpt>
      <trkpt lat="47.60573" lon="-0.75708">
        <ele>57.9</ele>
        <time>2026-01-18T09:34:58.824Z</time>
      </trkpt>
      <trkpt lat="47.60577" lon="-0.75702">
        <ele>58</ele>
        <time>2026-01-18T09:35:01.050Z</time>
      </trkpt>
      <trkpt lat="47.60583" lon="-0.75688">
        <ele>58</ele>
        <time>2026-01-18T09:35:05.300Z</time>
      </trkpt>
      <trkpt lat="47.60588" lon="-0.7567">
        <ele>57.8</ele>
        <time>2026-01-18T09:35:10.174Z</time>
      </trkpt>
      <trkpt lat="47.60592" lon="-0.75656">
        <ele>58</ele>
        <time>2026-01-18T09:35:14.200Z</time>
      </trkpt>
      <trkpt lat="47.60595" lon="-0.75651">
        <ele>57.9</ele>
        <time>2026-01-18T09:35:15.860Z</time>
      </trkpt>
      <trkpt lat="47.60599" lon="-0.75647">
        <ele>57.7</ele>
        <time>2026-01-18T09:35:17.590Z</time>
      </trkpt>
      <trkpt lat="47.60606" lon="-0.75643">
        <ele>57.3</ele>
        <time>2026-01-18T09:35:20.246Z</time>
      </trkpt>
      <trkpt lat="47.60643" lon="-0.75624">
        <ele>56.9</ele>
        <time>2026-01-18T09:35:34.892Z</time>
      </trkpt>
      <trkpt lat="47.60676" lon="-0.75603">
        <ele>56.2</ele>
        <time>2026-01-18T09:35:48.145Z</time>
      </trkpt>
      <trkpt lat="47.60689" lon="-0.75594">
        <ele>56.1</ele>
        <time>2026-01-18T09:35:53.538Z</time>
      </trkpt>
      <trkpt lat="47.60838" lon="-0.75495">
        <ele>53.8</ele>
        <time>2026-01-18T09:36:54.261Z</time>
      </trkpt>
      <trkpt lat="47.60842" lon="-0.75492">
        <ele>53.7</ele>
        <time>2026-01-18T09:36:55.909Z</time>
      </trkpt>
      <trkpt lat="47.60906" lon="-0.75454">
        <ele>52.7</ele>
        <time>2026-01-18T09:37:21.533Z</time>
      </trkpt>
      <trkpt lat="47.60914" lon="-0.7545">
        <ele>52.8</ele>
        <time>2026-01-18T09:37:24.804Z</time>
      </trkpt>
      <trkpt lat="47.60937" lon="-0.75438">
        <ele>53.1</ele>
        <time>2026-01-18T09:37:34.260Z</time>
      </trkpt>
      <trkpt lat="47.60979" lon="-0.75421">
        <ele>52.6</ele>
        <time>2026-01-18T09:37:50.514Z</time>
      </trkpt>
      <trkpt lat="47.61006" lon="-0.7541">
        <ele>52.2</ele>
        <time>2026-01-18T09:38:00.924Z</time>
      </trkpt>
      <trkpt lat="47.61017" lon="-0.75402">
        <ele>52.2</ele>
        <time>2026-01-18T09:38:05.580Z</time>
      </trkpt>
      <trkpt lat="47.61052" lon="-0.75366">
        <ele>52.1</ele>
        <time>2026-01-18T09:38:21.704Z</time>
      </trkpt>
      <trkpt lat="47.61074" lon="-0.75349">
        <ele>52.1</ele>
        <time>2026-01-18T09:38:31.131Z</time>
        <extensions>
          <visugpx:TrkExtension xmlns:visugpx="https://www.visugpx.com/editgpx/">
            <visugpx:node>28</visugpx:node>
            </visugpx:TrkExtension>
        </extensions>
      </trkpt>
      <trkpt lat="47.61082" lon="-0.75343">
        <ele>52</ele>
        <time>2026-01-18T09:38:34.479Z</time>
      </trkpt>
      <trkpt lat="47.61188" lon="-0.75276">
        <ele>51.3</ele>
        <time>2026-01-18T09:39:17.849Z</time>
      </trkpt>
      <trkpt lat="47.61193" lon="-0.75273">
        <ele>51.2</ele>
        <time>2026-01-18T09:39:19.843Z</time>
      </trkpt>
      <trkpt lat="47.61278" lon="-0.75218">
        <ele>50</ele>
        <time>2026-01-18T09:39:54.391Z</time>
      </trkpt>
      <trkpt lat="47.61328" lon="-0.75186">
        <ele>48.4</ele>
        <time>2026-01-18T09:40:14.222Z</time>
      </trkpt>
      <trkpt lat="47.61356" lon="-0.75168">
        <ele>48.2</ele>
        <time>2026-01-18T09:40:25.700Z</time>
      </trkpt>
      <trkpt lat="47.61337" lon="-0.7511">
        <ele>48.8</ele>
        <time>2026-01-18T09:40:42.602Z</time>
      </trkpt>
      <trkpt lat="47.61318" lon="-0.75017">
        <ele>48.3</ele>
        <time>2026-01-18T09:41:07.202Z</time>
      </trkpt>
      <trkpt lat="47.61305" lon="-0.74961">
        <ele>48</ele>
        <time>2026-01-18T09:41:22.198Z</time>
        <extensions>
          <visugpx:TrkExtension xmlns:visugpx="https://www.visugpx.com/editgpx/">
            <visugpx:node>29</visugpx:node>
            </visugpx:TrkExtension>
        </extensions>
      </trkpt>
      <trkpt lat="47.6129" lon="-0.74895">
        <ele>47.6</ele>
        <time>2026-01-18T09:41:39.806Z</time>
      </trkpt>
      <trkpt lat="47.61285" lon="-0.74875">
        <ele>47.4</ele>
        <time>2026-01-18T09:41:45.155Z</time>
      </trkpt>
      <trkpt lat="47.61283" lon="-0.74865">
        <ele>47.1</ele>
        <time>2026-01-18T09:41:47.675Z</time>
      </trkpt>
      <trkpt lat="47.6128" lon="-0.74853">
        <ele>47</ele>
        <time>2026-01-18T09:41:50.895Z</time>
      </trkpt>
      <trkpt lat="47.61252" lon="-0.74755">
        <ele>47</ele>
        <time>2026-01-18T09:42:18.162Z</time>
      </trkpt>
      <trkpt lat="47.61248" lon="-0.74734">
        <ele>46.4</ele>
        <time>2026-01-18T09:42:23.444Z</time>
      </trkpt>
      <trkpt lat="47.61241" lon="-0.74701">
        <ele>46</ele>
        <time>2026-01-18T09:42:32.079Z</time>
      </trkpt>
      <trkpt lat="47.61232" lon="-0.74658">
        <ele>45</ele>
        <time>2026-01-18T09:42:43.083Z</time>
      </trkpt>
      <trkpt lat="47.61222" lon="-0.74588">
        <ele>43.2</ele>
        <time>2026-01-18T09:43:00.475Z</time>
      </trkpt>
      <trkpt lat="47.6122" lon="-0.74574">
        <ele>42.7</ele>
        <time>2026-01-18T09:43:03.895Z</time>
      </trkpt>
      <trkpt lat="47.6121" lon="-0.74517">
        <ele>42</ele>
        <time>2026-01-18T09:43:18.588Z</time>
      </trkpt>
      <trkpt lat="47.612" lon="-0.74447">
        <ele>41.1</ele>
        <time>2026-01-18T09:43:36.412Z</time>
      </trkpt>
      <trkpt lat="47.6119" lon="-0.744">
        <ele>41</ele>
        <time>2026-01-18T09:43:48.978Z</time>
      </trkpt>
      <trkpt lat="47.61188" lon="-0.74389">
        <ele>41</ele>
        <time>2026-01-18T09:43:51.897Z</time>
      </trkpt>
      <trkpt lat="47.6117" lon="-0.74319">
        <ele>40</ele>
        <time>2026-01-18T09:44:10.529Z</time>
      </trkpt>
      <trkpt lat="47.61158" lon="-0.74259">
        <ele>40</ele>
        <time>2026-01-18T09:44:26.562Z</time>
      </trkpt>
      <trkpt lat="47.61152" lon="-0.74217">
        <ele>39.9</ele>
        <time>2026-01-18T09:44:37.501Z</time>
        <extensions>
          <visugpx:TrkExtension xmlns:visugpx="https://www.visugpx.com/editgpx/">
            <visugpx:node>30</visugpx:node>
            </visugpx:TrkExtension>
        </extensions>
      </trkpt>
      <trkpt lat="47.61152" lon="-0.74215">
        <ele>39.9</ele>
        <time>2026-01-18T09:44:38.013Z</time>
      </trkpt>
      <trkpt lat="47.61149" lon="-0.7415">
        <ele>39.6</ele>
        <time>2026-01-18T09:44:54.526Z</time>
      </trkpt>
      <trkpt lat="47.61144" lon="-0.74093">
        <ele>39.3</ele>
        <time>2026-01-18T09:45:09.075Z</time>
      </trkpt>
      <trkpt lat="47.61143" lon="-0.74069">
        <ele>39</ele>
        <time>2026-01-18T09:45:15.066Z</time>
      </trkpt>
      <trkpt lat="47.61145" lon="-0.74023">
        <ele>39.2</ele>
        <time>2026-01-18T09:45:26.999Z</time>
      </trkpt>
      <trkpt lat="47.61147" lon="-0.74014">
        <ele>39.5</ele>
        <time>2026-01-18T09:45:29.644Z</time>
      </trkpt>
      <trkpt lat="47.61146" lon="-0.73989">
        <ele>40.1</ele>
        <time>2026-01-18T09:45:36.477Z</time>
      </trkpt>
      <trkpt lat="47.61142" lon="-0.73964">
        <ele>40.4</ele>
        <time>2026-01-18T09:45:43.253Z</time>
      </trkpt>
      <trkpt lat="47.6114" lon="-0.73951">
        <ele>40.8</ele>
        <time>2026-01-18T09:45:46.957Z</time>
      </trkpt>
      <trkpt lat="47.61105" lon="-0.73825">
        <ele>42.1</ele>
        <time>2026-01-18T09:46:22.699Z</time>
      </trkpt>
      <trkpt lat="47.61101" lon="-0.73798">
        <ele>42.6</ele>
        <time>2026-01-18T09:46:30.117Z</time>
      </trkpt>
      <trkpt lat="47.61094" lon="-0.73762">
        <ele>43</ele>
        <time>2026-01-18T09:46:39.973Z</time>
      </trkpt>
      <trkpt lat="47.61087" lon="-0.7374">
        <ele>43.5</ele>
        <time>2026-01-18T09:46:46.546Z</time>
      </trkpt>
      <trkpt lat="47.61076" lon="-0.73696">
        <ele>44.4</ele>
        <time>2026-01-18T09:46:59.176Z</time>
      </trkpt>
      <trkpt lat="47.61073" lon="-0.73681">
        <ele>44.7</ele>
        <time>2026-01-18T09:47:03.387Z</time>
      </trkpt>
      <trkpt lat="47.61068" lon="-0.73638">
        <ele>45.4</ele>
        <time>2026-01-18T09:47:15.030Z</time>
      </trkpt>
      <trkpt lat="47.61062" lon="-0.73569">
        <ele>47</ele>
        <time>2026-01-18T09:47:33.958Z</time>
      </trkpt>
      <trkpt lat="47.61061" lon="-0.73564">
        <ele>47.1</ele>
        <time>2026-01-18T09:47:35.362Z</time>
      </trkpt>
      <trkpt lat="47.6106" lon="-0.7356">
        <ele>47.2</ele>
        <time>2026-01-18T09:47:36.524Z</time>
      </trkpt>
      <trkpt lat="47.61055" lon="-0.73548">
        <ele>47.2</ele>
        <time>2026-01-18T09:47:40.138Z</time>
      </trkpt>
      <trkpt lat="47.61051" lon="-0.7354">
        <ele>47.3</ele>
        <time>2026-01-18T09:47:42.754Z</time>
      </trkpt>
      <trkpt lat="47.61046" lon="-0.7353">
        <ele>47.3</ele>
        <time>2026-01-18T09:47:45.943Z</time>
      </trkpt>
      <trkpt lat="47.61034" lon="-0.73499">
        <ele>47.5</ele>
        <time>2026-01-18T09:47:55.226Z</time>
      </trkpt>
      <trkpt lat="47.6103" lon="-0.73485">
        <ele>47.7</ele>
        <time>2026-01-18T09:47:59.252Z</time>
      </trkpt>
      <trkpt lat="47.61019" lon="-0.73429">
        <ele>48.6</ele>
        <time>2026-01-18T09:48:14.790Z</time>
      </trkpt>
      <trkpt lat="47.61015" lon="-0.73418">
        <ele>48.6</ele>
        <time>2026-01-18T09:48:17.992Z</time>
      </trkpt>
      <trkpt lat="47.61007" lon="-0.73406">
        <ele>48.3</ele>
        <time>2026-01-18T09:48:22.152Z</time>
      </trkpt>
      <trkpt lat="47.60983" lon="-0.73383">
        <ele>47.4</ele>
        <time>2026-01-18T09:48:32.529Z</time>
      </trkpt>
      <trkpt lat="47.60968" lon="-0.73378">
        <ele>46.2</ele>
        <time>2026-01-18T09:48:37.847Z</time>
      </trkpt>
      <trkpt lat="47.60943" lon="-0.73371">
        <ele>45.6</ele>
        <time>2026-01-18T09:48:47.184Z</time>
      </trkpt>
      <trkpt lat="47.60937" lon="-0.73367">
        <ele>45.6</ele>
        <time>2026-01-18T09:48:49.684Z</time>
      </trkpt>
      <trkpt lat="47.60925" lon="-0.7336">
        <ele>45.3</ele>
        <time>2026-01-18T09:48:54.418Z</time>
      </trkpt>
      <trkpt lat="47.60917" lon="-0.73355">
        <ele>45</ele>
        <time>2026-01-18T09:48:57.559Z</time>
      </trkpt>
      <trkpt lat="47.60897" lon="-0.73348">
        <ele>45</ele>
        <time>2026-01-18T09:49:05.367Z</time>
      </trkpt>
      <trkpt lat="47.60891" lon="-0.73342">
        <ele>45</ele>
        <time>2026-01-18T09:49:08.117Z</time>
      </trkpt>
      <trkpt lat="47.60873" lon="-0.73338">
        <ele>45</ele>
        <time>2026-01-18T09:49:15.033Z</time>
      </trkpt>
      <trkpt lat="47.60856" lon="-0.73327">
        <ele>45.4</ele>
        <time>2026-01-18T09:49:22.344Z</time>
      </trkpt>
      <trkpt lat="47.60839" lon="-0.73313">
        <ele>45.9</ele>
        <time>2026-01-18T09:49:30.068Z</time>
      </trkpt>
      <trkpt lat="47.60772" lon="-0.73264">
        <ele>48.7</ele>
        <time>2026-01-18T09:50:00.413Z</time>
      </trkpt>
      <trkpt lat="47.60746" lon="-0.73238">
        <ele>50.1</ele>
        <time>2026-01-18T09:50:13.335Z</time>
      </trkpt>
      <trkpt lat="47.60735" lon="-0.73231">
        <ele>50.4</ele>
        <time>2026-01-18T09:50:18.084Z</time>
      </trkpt>
      <trkpt lat="47.60718" lon="-0.73221">
        <ele>51.2</ele>
        <time>2026-01-18T09:50:25.606Z</time>
      </trkpt>
      <trkpt lat="47.60713" lon="-0.73217">
        <ele>51.3</ele>
        <time>2026-01-18T09:50:27.830Z</time>
        <extensions>
          <visugpx:TrkExtension xmlns:visugpx="https://www.visugpx.com/editgpx/">
            <visugpx:node>31</visugpx:node>
            </visugpx:TrkExtension>
        </extensions>
      </trkpt>
      <trkpt lat="47.6071" lon="-0.73215">
        <ele>51.4</ele>
        <time>2026-01-18T09:50:29.148Z</time>
      </trkpt>
      <trkpt lat="47.60694" lon="-0.73202">
        <ele>52</ele>
        <time>2026-01-18T09:50:36.493Z</time>
      </trkpt>
      <trkpt lat="47.60657" lon="-0.73183">
        <ele>53.6</ele>
        <time>2026-01-18T09:50:52.505Z</time>
      </trkpt>
      <trkpt lat="47.60638" lon="-0.73171">
        <ele>54</ele>
        <time>2026-01-18T09:51:00.613Z</time>
      </trkpt>
      <trkpt lat="47.60616" lon="-0.73162">
        <ele>54.1</ele>
        <time>2026-01-18T09:51:09.347Z</time>
      </trkpt>
      <trkpt lat="47.60599" lon="-0.73158">
        <ele>54.6</ele>
        <time>2026-01-18T09:51:16.226Z</time>
      </trkpt>
      <trkpt lat="47.60596" lon="-0.7316">
        <ele>54.7</ele>
        <time>2026-01-18T09:51:17.544Z</time>
      </trkpt>
      <trkpt lat="47.60594" lon="-0.73155">
        <ele>54.8</ele>
        <time>2026-01-18T09:51:19.101Z</time>
      </trkpt>
      <trkpt lat="47.60582" lon="-0.73146">
        <ele>55</ele>
        <time>2026-01-18T09:51:24.339Z</time>
      </trkpt>
      <trkpt lat="47.60548" lon="-0.7313">
        <ele>56</ele>
        <time>2026-01-18T09:51:38.568Z</time>
      </trkpt>
      <trkpt lat="47.60536" lon="-0.73123">
        <ele>56</ele>
        <time>2026-01-18T09:51:43.468Z</time>
      </trkpt>
      <trkpt lat="47.60524" lon="-0.73116">
        <ele>56.1</ele>
        <time>2026-01-18T09:51:48.431Z</time>
      </trkpt>
      <trkpt lat="47.60529" lon="-0.73103">
        <ele>56.3</ele>
        <time>2026-01-18T09:51:52.396Z</time>
      </trkpt>
      <trkpt lat="47.60545" lon="-0.73071">
        <ele>56.4</ele>
        <time>2026-01-18T09:52:02.664Z</time>
      </trkpt>
      <trkpt lat="47.60563" lon="-0.7304">
        <ele>55.7</ele>
        <time>2026-01-18T09:52:12.763Z</time>
      </trkpt>
      <trkpt lat="47.60595" lon="-0.72974">
        <ele>55</ele>
        <time>2026-01-18T09:52:33.187Z</time>
      </trkpt>
      <trkpt lat="47.60622" lon="-0.72905">
        <ele>54.6</ele>
        <time>2026-01-18T09:52:53.392Z</time>
      </trkpt>
      <trkpt lat="47.60635" lon="-0.72875">
        <ele>54.1</ele>
        <time>2026-01-18T09:53:02.250Z</time>
        <extensions>
          <visugpx:TrkExtension xmlns:visugpx="https://www.visugpx.com/editgpx/">
            <visugpx:node>32</visugpx:node>
            </visugpx:TrkExtension>
        </extensions>
      </trkpt>
      <trkpt lat="47.60659" lon="-0.72819">
        <ele>53</ele>
        <time>2026-01-18T09:53:18.646Z</time>
      </trkpt>
      <trkpt lat="47.60691" lon="-0.72749">
        <ele>53</ele>
        <time>2026-01-18T09:53:40.314Z</time>
      </trkpt>
      <trkpt lat="47.60695" lon="-0.72741">
        <ele>53</ele>
        <time>2026-01-18T09:53:42.865Z</time>
      </trkpt>
      <trkpt lat="47.60704" lon="-0.72731">
        <ele>52.9</ele>
        <time>2026-01-18T09:53:47.080Z</time>
      </trkpt>
      <trkpt lat="47.60712" lon="-0.72724">
        <ele>53</ele>
        <time>2026-01-18T09:53:50.673Z</time>
      </trkpt>
      <trkpt lat="47.60729" lon="-0.72713">
        <ele>53</ele>
        <time>2026-01-18T09:53:57.721Z</time>
      </trkpt>
      <trkpt lat="47.60743" lon="-0.72702">
        <ele>53</ele>
        <time>2026-01-18T09:54:03.741Z</time>
      </trkpt>
      <trkpt lat="47.60747" lon="-0.72694">
        <ele>53</ele>
        <time>2026-01-18T09:54:06.293Z</time>
      </trkpt>
      <trkpt lat="47.60748" lon="-0.7269">
        <ele>53</ele>
        <time>2026-01-18T09:54:07.386Z</time>
      </trkpt>
      <trkpt lat="47.60769" lon="-0.72689">
        <ele>53</ele>
        <time>2026-01-18T09:54:15.370Z</time>
      </trkpt>
      <trkpt lat="47.60773" lon="-0.72688">
        <ele>53</ele>
        <time>2026-01-18T09:54:16.911Z</time>
      </trkpt>
      <trkpt lat="47.60785" lon="-0.72687">
        <ele>53.1</ele>
        <time>2026-01-18T09:54:21.541Z</time>
      </trkpt>
      <trkpt lat="47.60793" lon="-0.72685">
        <ele>53.2</ele>
        <time>2026-01-18T09:54:24.687Z</time>
      </trkpt>
      <trkpt lat="47.60841" lon="-0.72674">
        <ele>54.3</ele>
        <time>2026-01-18T09:54:43.871Z</time>
      </trkpt>
      <trkpt lat="47.60869" lon="-0.72664">
        <ele>55.3</ele>
        <time>2026-01-18T09:54:55.507Z</time>
      </trkpt>
      <trkpt lat="47.60894" lon="-0.72649">
        <ele>56</ele>
        <time>2026-01-18T09:55:06.223Z</time>
      </trkpt>
      <trkpt lat="47.60917" lon="-0.72632">
        <ele>56</ele>
        <time>2026-01-18T09:55:15.988Z</time>
      </trkpt>
      <trkpt lat="47.60949" lon="-0.72612">
        <ele>57</ele>
        <time>2026-01-18T09:55:29.860Z</time>
      </trkpt>
      <trkpt lat="47.60954" lon="-0.72608">
        <ele>57</ele>
        <time>2026-01-18T09:55:32.019Z</time>
        <extensions>
          <visugpx:TrkExtension xmlns:visugpx="https://www.visugpx.com/editgpx/">
            <visugpx:node>33</visugpx:node>
            </visugpx:TrkExtension>
        </extensions>
      </trkpt>
      <trkpt lat="47.6096" lon="-0.72603">
        <ele>57.2</ele>
        <time>2026-01-18T09:55:34.769Z</time>
      </trkpt>
      <trkpt lat="47.60986" lon="-0.72582">
        <ele>58</ele>
        <time>2026-01-18T09:55:46.557Z</time>
      </trkpt>
      <trkpt lat="47.61031" lon="-0.72535">
        <ele>58.1</ele>
        <time>2026-01-18T09:56:07.532Z</time>
      </trkpt>
      <trkpt lat="47.61004" lon="-0.7238">
        <ele>59</ele>
        <time>2026-01-18T09:56:49.107Z</time>
      </trkpt>
      <trkpt lat="47.60998" lon="-0.7235">
        <ele>59</ele>
        <time>2026-01-18T09:56:57.124Z</time>
      </trkpt>
      <trkpt lat="47.60986" lon="-0.72305">
        <ele>59</ele>
        <time>2026-01-18T09:57:09.521Z</time>
      </trkpt>
      <trkpt lat="47.60979" lon="-0.72279">
        <ele>59</ele>
        <time>2026-01-18T09:57:16.693Z</time>
      </trkpt>
      <trkpt lat="47.60965" lon="-0.7223">
        <ele>59</ele>
        <time>2026-01-18T09:57:30.327Z</time>
      </trkpt>
      <trkpt lat="47.60963" lon="-0.72223">
        <ele>59</ele>
        <time>2026-01-18T09:57:32.275Z</time>
      </trkpt>
      <trkpt lat="47.60958" lon="-0.72194">
        <ele>59.5</ele>
        <time>2026-01-18T09:57:40.276Z</time>
      </trkpt>
      <trkpt lat="47.60958" lon="-0.72185">
        <ele>59.7</ele>
        <time>2026-01-18T09:57:42.720Z</time>
      </trkpt>
      <trkpt lat="47.60946" lon="-0.72025">
        <ele>61</ele>
        <time>2026-01-18T09:58:24.787Z</time>
      </trkpt>
      <trkpt lat="47.60943" lon="-0.71982">
        <ele>61</ele>
        <time>2026-01-18T09:58:35.862Z</time>
      </trkpt>
      <trkpt lat="47.60942" lon="-0.71967">
        <ele>61.2</ele>
        <time>2026-01-18T09:58:39.854Z</time>
      </trkpt>
      <trkpt lat="47.60939" lon="-0.71935">
        <ele>61.8</ele>
        <time>2026-01-18T09:58:48.535Z</time>
      </trkpt>
      <trkpt lat="47.60938" lon="-0.71918">
        <ele>61.8</ele>
        <time>2026-01-18T09:58:52.907Z</time>
        <extensions>
          <visugpx:TrkExtension xmlns:visugpx="https://www.visugpx.com/editgpx/">
            <visugpx:node>34</visugpx:node>
            </visugpx:TrkExtension>
        </extensions>
      </trkpt>
    </trkseg>
  </trk>
</gpx>